Filtrer par Nom Sexe Groupe d'age
LEPAPE Marmotte Granfondo Alpes 2005
RG. DOS. TEMPS CAT RG. POINTS
1 390 NEGRINI EMANUELE 05:49:40:000 D 1 345.00 PIANORO BO, ITALIE
2 5 DEKKER BERT 05:59:59:000 D 2 343.85 LEKKERKERPIK, Pays-Bas
3 360 SALA STEFANO 06:00:45:000 D 3 342.70 villasanta mb, Italie
4 198 MILESI CHRISTIAN 06:10:33:000 C 1 345.00 , FRANCE
5 362 RIVA GIANPAOLO 06:12:03:000 E 1 345.00 OGGIONO (LECCO), ITALIE
6 9 HIDDEMA OEGE 06:12:30:000 D 4 341.55 GRONINGEN, Pays-Bas
7 6 COLEVRET PHILIPPE 06:14:06:000 D 5 340.40 NICE, FRANCE
8 389 PATUELLI ANDREA 06:15:45:000 D 6 339.25 IMMOLA BO, ITALIE
9 4868 AERNOUTS BART 06:18:12:000 C 2 343.85 SCHIJNDEL, Pays-Bas
10 163 ROUX MICHEL 06:18:23:000 E 2 343.85 DIGNE LES BAINS, FRANCE
11 116 GUERAUD PATRICK 06:20:43:000 D 7 338.10 ALPE D HUEZ, FRANCE
12 190 SOENEN JOHN 06:25:06:000 D 8 336.95 MAASMECHELEN, BELGIQUE
13 19 VERHEYEN RUDY 06:25:22:000 D 9 335.80 OUD-TURNHOUF, BELGIQUE
14 40 DULAURENT OLIVIER 06:26:30:000 D 10 334.65 CAMBRONNE LES CLERMONT, FRANCE
15 133 CHORIER JULIEN 06:28:04:000 C 3 342.70 ST THIBAUD DE COUZ, FRANCE
16 3505 SALLADINI LORIS 06:29:09:000 D 11 333.50 SAN BENEDETTO DEL TRONTO, ITALIE
17 4743 MAIELLO GIOVANNI 06:29:41:000 D 12 332.35 ACQUI TERME AL, ITALIE
18 209 WESSELS FRANS 06:30:55:000 E 3 342.70 OOSTERHOUT, Pays-bas
19 134 VANDENHOUDT RAF 06:31:44:000 E 4 341.55 DIEST, BELGIQUE
20 2558 KNEPPERS PAUL 06:32:59:000 C 4 341.55 DELFT, Pays-bas
21 15 OUGIER NICOLAS 06:33:45:000 D 13 331.20 MACOT LA PLAGNE, France
22 1988 COLLARD SIMON 06:35:07:000 C 5 340.40 SAIVE, BELGIQUE
23 4 REZZANI MICHELE 06:35:08:000 D 14 330.05 BOLOGNA, ITALIE
24 391 FRIGO MAURIZIO 06:35:09:000 D 15 328.90 LONATE POZZOLO (VA), ITALIE
25 189 PERONE DAVID 06:36:10:000 D 16 327.75 VAUJANY, FRANCE
26 257 CUENCA ARCE RUBÉN 06:36:33:000 C 6 339.25 ALFAFAR, Espagne
27 380 PIJPERS HANS 06:36:34:000 D 17 326.60 OOSTERHOUT, Pays-Bas
28 207 WESTSTRATE ROEDI 06:36:43:000 D 18 325.45 s-Heer Arendskerke, Pays-Bas
29 70 REIJMERS RUUD 06:37:31:000 D 19 324.30 HERTOGENBOSCH, Pays-Bas
30 3506 LUZI GIANNI 06:37:31:000 D 20 323.15 CASTEL DI SAMA AP, ITALIE
31 80 MARLIER JEROME 06:37:41:000 D 21 322.00 CONFLANS SUR ANILLE, FRANCE
32 184 DE VRIEZE DITER 06:38:04:000 C 7 338.10 Oudenaarde, Belgique
34 332 JUHEN NICOLAS 06:38:22:000 C 8 336.95 Mignovillard, France
35 169 NUSS ALEXANDRE 06:38:30:000 D 22 320.85 LYON, FRANCE
36 173 ROUX JEAN PASCAL 06:38:47:000 E 5 340.40 BEDOIN, FRANCE
37 201 ALTEWISCHER WERNER 06:39:23:000 C 9 335.80 ARNHEM, Pays-Bas
39 61 SEVENANTS TOM 06:40:27:000 D 24 318.55 ZOUTLEEUW, BELGIQUE
40 51 PERRA HENRI 06:40:52:000 E 6 339.25 DARDILLY, France
41 344 BERTELS TOM 06:40:59:000 D 25 317.40 TURNHOUT, BELGIQUE
42 152 NIEZINK DANIEL 06:41:13:000 C 10 334.65 GRONINGEN, Pays-Bas
43 965 GOETELEN JEF 06:41:17:000 E 7 338.10 OUD TURNHOUT, BELGIQUE
44 215 BOKKERS JOOST 06:41:55:000 C 11 333.50 NIJKERK, Pays-Bas
45 53 VINCENDET ERIC 06:42:14:000 E 8 336.95 LA CELLE ST CLOUD, FRANCE
46 228 STORME MARNICK 06:42:18:000 E 9 335.80 Ieper, Belgique
47 132 COMBES JEAN MARC 06:42:35:000 E 10 334.65 FUVEAU, FRANCE
48 321 HAAG HANNO 06:42:41:000 D 26 316.25 HEIDELBERG, ALLEMAGNE
49 348 RIAS EMMANUEL 06:42:59:000 D 27 315.10 SEYSSINET, FRANCE
50 3515 SERIOLI GIANLUCA 06:43:19:000 D 28 313.95 ISEO BS, ITALIE
51 210 KOCH STEFAN 06:43:23:000 E 11 333.50 HEUSENSTAMM, ALLEMAGNE
52 224 CHAMBERLAIN ROY 06:44:08:000 E 12 332.35 MILTON KEYNES, Royaume-Uni
53 279 RICHARD STANISLAS 06:44:08:000 E 13 331.20 Annemasse, France
54 6245 VAN HAREN JOOST 06:44:09:000 C 12 332.35 BOXMEER, Pays-bas
55 349 GOVAARTS MAIKEL 06:44:17:000 D 29 312.80 DRUNEN, Pays-Bas
56 235 SOETERS MAARTEN 06:44:23:000 D 30 311.65 ABCOUDE, Pays-Bas
57 5334 FINE NICOLAS 06:44:39:000 C 13 331.20 LA SALLE LES ALPES, France
58 744 SCHAFER WERNER 06:44:42:000 D 31 310.50 MUNCHHAUSEN, Allemagne
59 170 SMITS SANDER 06:45:12:000 C 14 330.05 UTRECHT, Pays-bas
60 1917 COSTET FREDERIC 06:45:32:000 D 32 309.35 ALPE D'HUEZ, FRANCE
61 2358 SCHMITZ JEROEN 06:46:09:000 C 15 328.90 UTRECHT, Pays-Bas
62 158 MOREL GILLES 06:46:35:000 E 14 330.05 ANNECY LE VIEUX, FRANCE
63 182 RICHARD DAMIEN 06:46:49:000 C 16 327.75 EPINAL, France
64 203 CLAERMAN KEVIN 06:46:54:000 D 33 308.20 UTRECHT, Pays-Bas
65 259 VILLETTE MANUEL 06:47:08:000 D 34 307.05 PIERRE BENITE, FRANCE
66 68 SCHEFFER FRANK 06:47:14:000 E 15 328.90 DEN DOLDER, Pays-bas
67 156 MARAGA CLAUDE 06:47:19:000 E 16 327.75 LAMBESC, France
68 4099 BRIVIO ALESSIO 06:47:20:000 D 35 305.90 MISSAGLIA, ITALIE
69 115 POUTOT FRANCIS 06:47:25:000 D 36 304.75 BOURG D OISANS, France
70 204 VAN KAN BAS 06:48:02:000 D 37 303.60 MEERSEEN, Pays-Bas
71 216 CORDONNIER JOHAN 06:48:18:000 D 38 302.45 LIEDEKERKE, BELGIQUE
72 892 DOGLIOTTI ENRICO 06:48:31:000 D 39 301.30 TORINO, ITALIE
73 4920 BURGDORFER PIERRE-ALAIN 06:48:41:000 E 17 326.60 ST-LéGIER, Suisse
74 143 DEBOEL PATRICK 06:48:54:000 D 40 300.15 TESSENDERLO, BELGIQUE
75 306 BERTHOLET SEBASTIEN 06:49:12:000 C 17 326.60 ALBERVILLE, FRANCE
76 3811 HARTKAMP TOM 06:49:31:000 C 18 325.45 SPANBROEK, Pays-Bas
77 925 CLINTON TORBEN 06:49:32:000 D 41 299.00 J’GERSPRIS, DANEMARK
78 153 PHILIPONA BRUNO 06:49:37:000 D 42 297.85 MEAUX, FRANCE
79 5493 SULKERS JOHN 06:49:42:000 C 19 324.30 DINTELOORD, Pays-Bas
80 374 DORFMAN XAVIER 06:49:48:000 D 43 296.70 ATTIGNAT ONCIN, FRANCE
81 2285 ROULLAND BENOIT 06:49:50:000 D 44 295.55 VANVES, FRANCE
82 392 MONGARDI SALVATORE 06:50:11:000 G 1 345.00 S. LAZZARO (BOLOGNA), ITALIE
83 81 RICHARDSON JAMES 06:50:40:000 D 45 294.40 BRISTOL, Royaume-Uni
84 39 PERZO CLAUDE 06:50:42:000 E 18 325.45 HA NQI, Viet nam
86 8965 DISEVISCOURT RALPH 06:50:54:700 C 20 323.15 NOCHER, LUXEMBOURG
87 3504 MENGHINI ANGELO 06:52:19:000 D 46 293.25 MARTINSICURO AP, ITALIE
88 60 COLLARD CHRISTOPHE 06:52:21:000 E 20 323.15 LE BESSAT, FRANCE
89 272 MOIROUX THIERRY 06:52:39:000 E 21 322.00 POLEYMIEYX, FRANCE
90 151 LANTUEJOUL JULIEN 06:52:40:000 C 21 322.00 FONTAINES S/SAONE, FRANCE
91 255 SALIOU MICHEL 06:52:52:000 D 47 292.10 CARANTEC, FRANCE
92 293 KAAL JOS 06:53:13:000 D 48 290.95 KLEVE, ALLEMAGNE
93 223 FERKET JO 06:53:36:000 F 1 345.00 VALKENBURG, Pays-bas
94 2089 FRANCKEN FRANK 06:53:54:000 E 22 320.85 PUTTE, Pays-Bas
95 253 VEKEMANS TOM 06:54:06:000 C 22 320.85 HALLE-ZOERSEL, BELGIQUE
96 194 RUESINK ERIK 06:54:07:000 E 23 319.70 DINXPERLO, Pays-Bas
97 74 HUTS OLIVIER 06:54:10:000 D 49 289.80 TIENEN, BELGIQUE
98 7 BARTHELEMY JEAN CLAUDE 06:54:37:000 D 50 288.65 PONTCHARRA, France
99 3892 PEETERS GIJS 06:54:39:000 D 51 287.50 HAACHT, BELGIQUE
100 66 PERRAUDIN FLORIAN 06:55:19:000 C 23 319.70 VERSEGERES, Suisse
101 275 RIETVELD LARS 06:55:34:000 E 24 318.55 OUDEWATER, Pays-Bas
102 3665 HAVERMANS RUUD 06:55:43:000 E 25 317.40 NIEUW VOSSEMEER, Pays-Bas
103 378 NOEL FREDERIC 06:56:00:000 E 26 316.25 LE BOURG D OISANS, FRANCE
104 243 VAN BELLE DIRK 06:56:05:000 E 27 315.10 MULLEM, BELGIQUE
105 42 LEUCKX MARC 06:56:08:000 E 28 313.95 LENNIK, BELGIQUE
106 180 LANCELOT MICHEL 06:57:13:000 E 29 312.80 SAINT GENIS LAVAL, France
107 1632 DE HEER ARJAN 06:57:31:000 D 52 286.35 DEN HELDER, Pays-Bas
108 141 RENAUD JEAN PIERRE 06:57:57:000 D 53 285.20 BERNIN, FRANCE
109 218 JANSSEN WIM 06:59:08:000 D 54 284.05 VENRAY, Pays-Bas
110 335 HERTOGH MICHEL 06:59:10:000 F 2 343.85 WOUW, Pays-bas
111 121 LUCIANI SERGE 06:59:24:000 E 30 311.65 ECHIROLLES, FRANCE
112 237 BUISSON OLIVIER 07:00:05:000 D 55 282.90 ST MARCELLIN, FRANCE
113 1971 ROBERTS JASON 07:00:06:000 D 56 281.75 GRENOBLE, Royaume-Uni
114 16 HEFNER HEIKO 07:00:34:000 D 57 280.60 HEETSTADT, ALLEMAGNE
115 8442 BABAD NICOLAS 07:00:39:000 C 24 318.55 VILLEFRANCHE SUR SAONE, FRANCE
116 1124 HOEBOER JEAN PIERRE 07:01:08:000 D 58 279.45 THOLEN, Pays-Bas
117 2210 MAES GEOFFREY 07:01:30:000 D 59 278.30 OVERMERE, BELGIQUE
118 291 LUYET YVES 07:01:39:000 D 60 277.15 SAVIESE, SUISSE
119 1831 BESSELINK ROLAND 07:01:43:000 D 61 276.00 , Pays-Bas
120 144 LEDIN PHILIPPE 07:01:48:000 D 62 274.85 VALLEIRY, FRANCE
121 619 JOLY XAVIER 07:02:05:000 D 63 273.70 LADOIX-SERRIGNY, FRANCE
122 231 VERSCHRAEGEN KRIJN 07:02:06:000 D 64 272.55 SINT LIEVENS HOUTEM, BELGIQUE
123 260 VERMEER TOM 07:02:27:000 C 25 317.40 LEUSDEN, Pays-Bas
124 3903 BREED SIEBE 07:02:37:000 C 26 316.25 LEIDEN, Pays-Bas
125 4760 DESIDERI CESARINO 07:02:43:000 D 65 271.40 ASCOLI PICENO AP, ITALIE
126 161 MASSAUD RICHARD 07:02:53:000 D 66 270.25 VILLEJUIF, FRANCE
127 117 EDOUARD MICHAEL 07:02:54:000 C 27 315.10 SAINT NAZAIRE, FRANCE
129 2468 HOMMES JOHN 07:03:03:000 D 67 269.10 DEDEMSVAART, Pays-Bas
130 222 GOETSCHALCKX JONNNY 07:03:04:000 D 68 267.95 BEERSE, BELGIQUE
131 3232 MULDERS CHRIS 07:03:06:000 E 32 309.35 BOXTEL, Pays-Bas
132 351 DI FELICE OMAR 07:03:11:000 C 28 313.95 GUIDONIA, ITALIE
133 2374 VAN HEES HENK 07:03:13:000 D 69 266.80 HOOGERHEIDE, Pays-Bas
134 549 MOORS SERGE 07:03:26:000 C 29 312.80 OPGLABBEEK, BELGIQUE
135 185 IMBERT PHILIPPE 07:03:33:000 E 33 308.20 VILLARD DE LANS, FRANCE
136 393 ANZENBERGER GERARD 07:03:40:000 D 70 265.65 RECHY, Suisse
137 5363 CARLINI CLAUDIO 07:03:45:000 E 34 307.05 SERRAMAZZONI, ITALIE
138 8779 LAUGERO PAOLO 07:03:49:000 D 71 264.50 DRONERO, ITALIE
139 18 MERMANS LUC 07:04:07:000 E 35 305.90 ARENDONK, BELGIQUE
140 219 VAN GENDT RON 07:04:14:000 E 36 304.75 EINDHOVEN, Pays-Bas
141 2373 VAN DE KLUNDERT NICO 07:05:04:000 E 37 303.60 HOOGERHEIDE, Pays-Bas
142 3905 STEIJN VAN PAUL 07:05:04:000 E 38 302.45 LEIDEN, Pays-Bas
143 943 CAENEN OLIVIER 07:05:08:000 D 72 263.35 OOSTENDE, BELGIQUE
144 72 BAMBER JONATHAN 07:05:12:000 E 39 301.30 TEMPLE CLOUD, Royaume-Uni
145 76 NIEUWENHUIS HENK 07:05:24:000 E 40 300.15 RIJSSEN, Pays-Bas
146 2390 HAAST STEFAN 07:05:29:000 C 30 311.65 RIJSBERGEN, Pays-Bas
147 25 MENDOZA FRANCK 07:05:30:000 D 73 262.20 LAIGNES, FRANCE
148 833 GOTI SERGIO 07:05:32:000 D 74 261.05 BUCINE, ITALIE
149 831 QUERCIOLI FABIO 07:06:03:000 C 31 310.50 CAVRIGLIA AR, ITALIE
150 28 VAN DEN HEUVEL SERGE 07:06:33:000 D 75 259.90 EKEREN, Belgique
151 345 FICTOOR DAVID 07:06:33:000 D 76 258.75 WIJK BIJ DUURSTEDE, Pays-Bas
152 238 VAN LIEDEKERKE PAUL 07:06:35:000 C 32 309.35 AAIGEM, BELGIQUE
153 106 SPEYBROUCK FILIP 07:06:35:400 C 33 308.20 BRUGGE, BELGIQUE
154 1120 LAFLEUR DIMITRI 07:06:38:000 D 77 257.60 GRONINGEN, Pays-Bas
155 202 VAN KORDELAAR ERIK 07:06:49:000 E 41 299.00 LEIDEN, Pays-Bas
156 609 COATS PAUL 07:07:04:000 D 78 256.45 HAMILTON, Royaume-Uni
157 3681 DENTON STEFAN 07:07:21:000 C 34 307.05 OEGSTGEEST, Pays-Bas
158 14 PETERS JIM 07:07:28:000 D 79 255.30 Loughborough, Royaume-Uni
159 297 BERTHOD PATRICK 07:07:49:000 D 80 254.15 VEX, SUISSE
160 357 BISERNI STEFANO 07:07:54:000 D 81 253.00 SANTA SOFIA FC, ITALIE
161 29 VAN WEZEL MICHEL 07:08:19:000 E 42 297.85 TERBORG, Pays-Bas
162 317 Romanens Lionel 07:08:40:000 D 82 251.85 Sergy, FRANCE
163 1003 MORGAN IAN 07:08:48:000 D 83 250.70 BRENTWOOD, Royaume-Uni
165 97 ADAMO ERIC 07:08:53:000 F 3 342.70 NICE, FRANCE
166 160 SAUNIER DANIEL 07:08:55:900 G 2 343.85 GEX, FRANCE
167 26 BOSSUYT OLIVIER 07:08:56:000 D 84 249.55 WAREGEM, Belgique
168 2375 DE CROM JOHN 07:09:06:000 E 43 296.70 WOENSDRECHT, Pays-Bas
169 883 MALIS PETR 07:09:16:000 C 35 305.90 OSTRAVA-3, 57
170 524 GERRITSEN MAARTEN 07:09:18:000 D 85 248.40 WAGENINGEN, Pays-Bas
171 22 LAMONTAGNE PIERRE MARC 07:09:26:000 E 44 295.55 ST AUBIN, FRANCE
172 484 HAAST RENE 07:09:28:000 E 45 294.40 RIJSBERGEN, Pays-Bas
173 8976 DEMESY FRANCK 07:09:34:000 D 86 247.25 LANEUVEVILLE, FRANCE
174 5457 BONNAL WALTER 07:09:41:000 D 87 246.10 CLERMONT-FERRAND, FRANCE
175 382 BIGI FEDERICO 07:09:48:000 D 88 244.95 PIETRASANTA LU, ITALIE
176 188 TASSI JEAN-MARCEL 07:10:07:000 F 4 341.55 NICE, FRANCE
177 323 REBOUL GILLES 07:10:10:000 D 89 243.80 CHENOVE, FRANCE
179 1332 FRISSEN GERARD 07:10:19:000 D 90 242.65 VALKENBURG A/D GEUL, Pays-Bas
180 532 GEERLINGS RUUD 07:10:48:000 C 36 304.75 TELEGEN, Pays-Bas
181 82 VANDENBUSSCHE TOM 07:10:56:000 C 37 303.60 ASSEBROEK, BELGIQUE
182 177 AMIOT EDOUARD 07:11:01:000 C 38 302.45 BESANCON, FRANCE
183 1065 KENDALL DAVID 07:11:05:000 D 91 241.50 LONDON, Royaume-Uni
184 183 KOOMEN PETER 07:11:11:000 E 46 293.25 SALLES ARBUISSONAS, FRANCE
185 270 BORDAZ J.CLAUDE 07:11:22:000 D 92 240.35 LYON, FRANCE
186 699 BOYRIE J.PIERRE 07:11:43:000 D 93 239.20 BORDERES, France
187 776 DE MEUTER STEFAAN 07:12:03:000 D 94 238.05 Asse, Belgique
188 71 BARD DOMINIQUE 07:12:06:000 I 1 345.00 CREST, FRANCE
189 6348 BRIENEN GEERT 07:12:17:000 C 39 301.30 HELMOND, Pays-Bas
190 261 DE TOFFOL LUCA 07:12:25:000 C 40 300.15 LIMANA (BL), ITALIE
191 290 KASLER JENS 07:12:25:000 E 47 292.10 JAEGERSPRIS, DANEMARK
192 3482 DE CARLI ALBERTO 07:12:25:000 C 41 299.00 FELTRE-BELLUNO, ITALIE
193 78 THIRY FREDERIC 07:12:40:000 D 95 236.90 MEYLAN, FRANCE
194 320 HENRY YANNICK 07:12:49:000 D 96 235.75 FLEURIE, FRANCE
195 4292 SINATTI FREDERIC 07:13:06:000 D 97 234.60 LEYME, FRANCE
196 858 PERUZZI PAOLO 07:13:18:000 D 98 233.45 , ITALIE
197 37 JANDARD NICOLAS 07:13:34:000 C 42 297.85 ANNEMASSE, FRANCE
199 30 GILLES PATRICK 07:14:19:000 D 100 231.15 PONT DE L ISERE, FRANCE
201 790 BROUTE ROMEO 07:14:34:000 C 44 295.55 PRUILLE LE CHETIF, FRANCE
202 3279 BREEDT MICHAEL 07:14:43:000 C 45 294.40 ZAANDAM, Pays-Bas
203 172 BARBIERI NICOLA 07:14:44:000 C 46 293.25 CASTELLARANO (RE), ITALIE
204 752 DE CRAENE GINO 07:14:44:000 E 48 290.95 WAARSCHOOT, BELGIQUE
205 27 DESAEGER CHRISTIAN 07:15:12:000 D 101 230.00 LIERDE, BELGIQUE
206 214 LEYS JOHN 07:15:13:000 E 49 289.80 KRUISLAND, Pays-Bas
207 647 DE SWAEF STEFAN 07:15:13:000 E 50 288.65 NEDERZWALM, BELGIQUE
208 1000 BURTON GLYN 07:15:37:000 D 102 228.85 MOSSLEY TAMESIDE, Royaume-Uni
209 859 PERRUZI PAOLO 07:15:46:000 D 103 227.70 , ITALIE
210 599 KOSTER RON 07:15:58:000 C 47 292.10 TELEGEN, Pays-Bas
211 2805 BROENDUM SOEREN 07:15:59:000 D 104 226.55 SKANDERBORG, DANEMARK
212 266 KOSTER WALTER 07:16:15:000 E 51 287.50 HARDINXVELD, Pays-Bas
213 368 KOLLY BERNARD 07:16:19:000 F 5 340.40 LA RAVOIRE, FRANCE
214 3685 SCHAAFSMA HARCO 07:16:21:000 E 52 286.35 RIJNSBURG, Pays-bas
215 5437 SAEZ LUZON JUAN PEDRO 07:16:34:000 C 48 290.95 PETRER, ESPAGNE
216 33 PONS IVO 07:16:39:000 E 53 285.20 TORRE PELLICE, ITALIE
217 213 BALEMANS RICHARD 07:16:44:000 D 105 225.40 KRUISLAND, Pays-Bas
218 519 BOGMAN PATRICK 07:16:44:500 D 106 224.25 BEEK, Pays-Bas
219 23 SCHENK GERARD 07:16:46:000 F 6 339.25 ESSEN, Belgique
220 6904 BADURA ROMAN 07:16:49:000 D 107 223.10 BYTON, 28
221 337 JEURISSEN CEES 07:17:09:000 ElitH 1 345.00 DEURNE, Pays-Bas
222 154 SOURY GERALD 07:17:16:000 C 49 289.80 ROQUEBRUNE SUR ARGENS, FRANCE
223 1099 DARBOUX RENAUD 07:17:19:000 C 50 288.65 GROSBOIS, FRANCE
224 2009 VIDRE MORALES ALVARO 07:17:30:000 D 108 221.95 ALMENARA, ESPAGNE
225 3361 MOLLER HENRIK 07:17:32:000 D 109 220.80 FREDERIKSVAERK, DANEMARK
226 38 CASIMIR IGOR 07:17:54:000 C 51 287.50 NIVOLAS VERMELLE, France
227 31 JUILLARD PASCAL 07:18:03:000 E 54 284.05 ORCINES, FRANCE
228 58 GIORGALLA SERGE 07:18:12:000 E 55 282.90 paris, France
231 662 REYNIERS EDDY 07:18:51:000 E 56 281.75 ZOERSEL, BELGIQUE
232 99 NAVARRO SERGE 07:18:52:000 E 57 280.60 MARTIGUES, FRANCE
233 6934 ENGELEN JOHAN 07:19:31:000 E 58 279.45 LAAKDAL, BELGIQUE
234 358 LANKHAAR KOEN 07:19:41:000 C 52 286.35 HAARLE, Pays-Bas
235 2718 SAUDRAY FRANCIS 07:19:46:000 D 110 219.65 CHAPTELAT, FRANCE
236 4778 VAN HAAFTEN MARCO 07:19:46:000 C 53 285.20 STAVENISSE, Pays-Bas
237 4100 BRIVIO FABIO 07:19:47:000 E 59 278.30 MERATE, ITALIE
238 2071 TAS GERRY 07:20:03:000 C 54 284.05 HELDERGEM, BELGIQUE
239 11 CHANUT CHRISTOPHE 07:20:11:000 D 111 218.50 CRAPONNE, FRANCE
240 8780 BIANCO ENZO 07:20:13:000 D 112 217.35 MACRA (CN), ITALIE
241 227 MAES CHRIS 07:20:15:000 D 113 216.20 WEELDE, BELGIQUE
242 795 ROEGIERS JOHAN 07:20:20:000 E 60 277.15 LIEVEGEM, Belgique
243 1210 SCHOOFS DIRK 07:20:28:000 D 114 215.05 LEOPOLDSBURG, BELGIQUE
244 1035 RAEVEN PIERRE 07:20:29:000 E 61 276.00 BERG EN TERBLIJT, Pays-Bas
245 2114 FRANCKE JOOS 07:20:37:000 D 115 213.90 AMSTERDAM, Pays-Bas
246 5043 RIBO JEAN MARIE 07:20:38:000 D 116 212.75 ST MARTIN DE VALGALGUES, FRANCE
247 94 VAGENENDE FRANK 07:20:46:000 D 117 211.60 ERPE-MERE, BELGIQUE
248 907 VERBRUGGEN ROBBY 07:20:50:000 D 118 210.45 WESTERLO, BELGIQUE
249 69 BERTRAND JEAN-PAUL 07:21:06:000 E 62 274.85 SAINTE FOY LES LYON, FRANCE
250 813 GAUDENZI ALBERTO 07:21:24:000 D 119 209.30 MONTEVARCHI, ITALIE
251 171 BURGER SJORS 07:21:25:000 F 7 338.10 LEKKERKERK, Pays-Bas
252 98 FISTAHL JULIEN 07:21:27:000 D 120 208.15 CHAMBORD, FRANCE
253 301 BOUTOUX ALAIN 07:21:37:000 F 8 336.95 DARDILLY, FRANCE
254 280 BESSY THIERRY 07:21:40:000 D 121 207.00 SAINT ETIENNE, FRANCE
255 276 CAMILLI STEPHANE 07:21:41:000 D 122 205.85 MEYZIEU, FRANCE
256 102 MARTINEAU ERIC 07:21:42:000 D 123 204.70 ST ETIENNE, FRANCE
257 8457 RUSTEBIEL TOM 07:21:52:000 C 55 282.90 WILDERVANE, Pays-Bas
258 63 DE CACHARD FRANCOIS 07:21:56:000 E 63 273.70 ETZWIL, SUISSE
259 1512 SMIT ARNO 07:21:56:000 D 124 203.55 WAGENINGEN, Pays-Bas
260 369 FOURNIER NORBERT 07:22:04:000 E 64 272.55 CHALLES LES EAUX, FRANCE
261 4382 BRUNELLI ALESSIO 07:22:20:000 C 56 281.75 TRENTO, ITALIE
262 4941 BERNARD AURELIEN 07:22:20:000 D 125 202.40 ECHIROLLES, FRANCE
263 57 TEXIER MARILYNE 07:22:35:000 AB 1 345.00 LIMAY, FRANCE
264 904 VRINDTS LOUIS 07:22:51:000 F 9 335.80 HULSHOUT, BELGIQUE
265 2008 PRIETO GINES JAVIER 07:23:04:000 D 126 201.25 CASTELLON DE LA PLANA, ESPAGNE
266 1610 VENDERBOSCH EIMERT 07:23:09:000 E 65 271.40 DIDAM, Pays-Bas
267 1646 LAMBREGTS MARCEL 07:23:15:000 E 66 270.25 METEREN, Pays-Bas
268 720 DEDROOG MARCO 07:23:22:000 D 127 200.10 MAASMECHELEM, BELGIQUE
269 1104 VAN DER WEERDT HENK 07:23:32:000 C 57 280.60 HETEREN, Pays-Bas
270 2400 VERSCHUREN JAN 07:23:38:000 D 128 198.95 WASPIK, Pays-Bas
271 3777 COLOMER POMARES VICENTE 07:23:48:000 D 129 197.80 CANALS VALENCIA, ESPAGNE
272 2206 KERSJES WOUTER 07:23:55:000 C 58 279.45 AMSTENRADE, Pays-Bas
273 2664 VAN KESSEL RIEN 07:24:07:000 F 10 334.65 DEURNE, Pays-Bas
274 2437 VAN DER HEIJDEN JEROEN 07:24:10:000 C 59 278.30 BLADEL, Pays-Bas
275 2578 JACOBS ROEL 07:24:17:000 C 60 277.15 BOXMEER, Pays-Bas
276 2762 FAURE SEBASTIEN 07:24:18:000 D 130 196.65 SAYAT, FRANCE
277 3334 FREYBURGER KLAUS 07:24:28:000 E 67 269.10 SCHWETZINGEN, ALLEMAGNE
278 4404 BOMEL FRANCOIS 07:24:36:000 D 131 195.50 ST ETIENNE, FRANCE
279 653 CRAMER TOMMY 07:24:43:000 C 61 276.00 GREVE, DANEMARK
280 3985 VINGERHOETS RONNY 07:24:43:000 D 132 194.35 ZOERSEL, BELGIQUE
281 339 BOLSENBROEK MAURICE 07:24:46:000 C 62 274.85 APELDOORN, Pays-Bas
282 166 SORINE MICHEL 07:24:47:000 E 68 267.95 LYON, FRANCE
283 4085 CAMMAERT ANDY 07:24:49:000 D 133 193.20 AALST, BELGIQUE
284 5557 LAJUSTICIA RODRIGUEZ FRANCISCO 07:25:02:000 E 69 266.80 HERNANI (GUIPUZCOA), Espagne
285 1044 MAERSK POUL 07:25:10:000 E 70 265.65 ESBJERG V., Danemark
286 485 SPIJKERMAN JEROEN 07:25:11:000 D 134 192.05 OUDORP, Pays-Bas
287 49 JANSE JOHNNY 07:25:13:000 D 135 190.90 RENESSE, Pays-bas
288 861 SANCISI MICHELE 07:25:22:000 F 11 333.50 SANTARCANGELO DI R., ITALIE
289 230 RUYMEN MARC 07:25:27:000 E 71 264.50 GINGELOM, BELGIQUE
290 73 JACQUIN GERARD 07:25:38:000 E 72 263.35 BAUME LES DAMES, France
291 2469 REURINK ARIE 07:25:45:000 E 73 262.20 BALKBRUG, Pays-Bas
292 5195 BEDU SEBASTIEN 07:25:51:000 C 63 273.70 TIGNES, FRANCE
293 264 STIENNON BERNARD 07:25:56:000 E 74 261.05 WAVRE, BELGIQUE
294 2338 VAN BUREN BERT 07:26:00:000 C 64 272.55 SCHOONHOVEN, Pays-Bas
295 2545 DE CLERCK WARD 07:26:06:000 D 136 189.75 OESELGEM, BELGIQUE
296 245 ALVAREZ RODRIGUEZ MANUEL 07:26:07:000 D 137 188.60 ESCALDES, ANDORRE
297 2950 TER HOVE WIM 07:26:08:000 D 138 187.45 EERBEEK, Pays-Bas
298 2124 MARZOCCA PHILIPPE 07:26:15:000 D 139 186.30 ROCHES LES BLAMONT, FRANCE
299 2127 COSIJNS GRATIEN 07:26:20:000 E 75 259.90 KRUISHOUTEM, BELGIQUE
300 119 METIVIER DANIEL 07:26:27:000 F 12 332.35 SISTERON, FRANCE
301 199 SOCQUET ALAIN 07:26:35:000 E 76 258.75 MEGEVE, FRANCE
302 463 TEN BRINKE NIEK 07:26:46:000 C 65 271.40 TILBURG, Pays-Bas
303 83 PENALVER FRANCOIS 07:26:58:000 E 77 257.60 CAMPS LA SOURCE, FRANCE
304 187 CLAVEL PHILIPPE 07:27:17:000 E 78 256.45 SIX FOURS, France
305 5367 VAN DE NES KURT 07:27:18:000 D 140 185.15 ZWOLLE, Pays-Bas
306 3536 RUIZ PONS FRANCISCO 07:27:54:000 C 66 270.25 SEDAVI, ESPAGNE
307 852 SALVINI WILLIAM 07:27:59:000 D 141 184.00 IMMOLA BO, ITALIE
308 881 ANZANI RODOLFO 07:28:08:000 C 67 269.10 MOLTENO, ITALIE
310 1941 TOCK PETER 07:28:11:000 F 13 331.20 ASSENDELFT, Pays-Bas
311 195 BORMIDA GIOVANNI 07:28:12:000 D 142 182.85 DEGO, ITALIE
312 706 FABRE CAMILLE 07:28:13:000 D 143 181.70 MONTPELLIER, FRANCE
313 623 VERMEERSCH PAUL 07:28:22:000 E 79 255.30 OUD TURNHOUT, BELGIQUE
314 3902 MEIJER RONALD 07:28:22:000 C 68 267.95 LEIDEN, Pays-Bas
315 4244 BENOIS PASCAL 07:28:34:000 D 144 180.55 MOLENBEEK, BELGIQUE
316 2447 KOHN RONALD 07:28:40:000 E 80 254.15 ZUIDLAND, Pays-Bas
318 244 ARNFINN OLESEN STEEN 07:28:59:000 E 81 253.00 ESBJERG, DANEMARK
319 5170 DE MEESTER HANS 07:29:10:000 D 145 179.40 VLIERZELE, BELGIQUE
320 530 VELDHUIS REMCO 07:29:13:000 C 69 266.80 HAAKSBERGEN, Pays-Bas
322 3488 BRICHESE ALBERTO 07:29:18:000 C 70 265.65 ZELARINO VE, ITALIE
323 2900 HAMON J.LUC 07:29:19:000 E 82 251.85 AVRILLE, FRANCE
324 181 BERAUD RICHARD 07:29:26:000 E 83 250.70 CHARBONNIERES, France
325 285 VAN GOEYE IGNACE 07:29:39:000 E 84 249.55 KRUIBEKE, BELGIQUE
326 3891 VANDENSANDE JOOST 07:29:47:000 D 146 178.25 HERENT, BELGIQUE
327 350 VAN DE CALSEIJDE JEROEN 07:29:48:000 D 147 177.10 AMERSFOORT, Pays-Bas
328 3808 BELLINI MARC 07:29:51:000 D 148 175.95 FLEMALLE, BELGIQUE
329 2420 DE LAAT PATRICK 07:30:00:000 C 71 264.50 VINKEL, Pays-Bas
330 1994 MUNSTEGE PAUL 07:30:07:000 E 85 248.40 LEIDEN, Pays-Bas
331 451 VAN SEETERS BORIS 07:30:08:000 D 149 174.80 MONTFOORT, Pays-Bas
333 1191 PEETERS LUC 07:30:31:000 E 86 247.25 LILLE, BELGIQUE
334 3403 TESTORI SIMONE 07:30:31:000 D 150 173.65 POSIANO LC, ITALIE
335 3402 MATTEINI GIORGIO 07:30:33:000 E 87 246.10 LECCO LC, ITALIE
336 5942 DROBECQ JEAN MARIE 07:30:44:000 F 14 330.05 , FRANCE
337 5144 CADET FREDERIC 07:30:52:000 D 151 172.50 ARLES, FRANCE
338 853 OLIVI ROBERTO 07:30:53:000 D 152 171.35 CADEO, ITALIE
339 2011 MOLES BALLESTER JOSE 07:31:02:000 F 15 328.90 NULES CASTELLON, ESPAGNE
340 2615 MACHENAUD JEAN CHRISTOPHE 07:31:09:000 E 88 244.95 SAINT ETIENNE, FRANCE
341 8020 KUSTERMANS KEVIN 07:31:11:000 C 72 263.35 KALMTITOUT, BELGIQUE
342 292 CODEBO GIAN PAOLO 07:31:16:000 C 73 262.20 GENOVA, ITALIE
343 3280 VAN BERS JORGEN 07:31:24:000 C 74 261.05 AMSTERDAM, Pays-Bas
344 1515 SIMONS PETER 07:31:42:000 E 89 243.80 GERWEN, Pays-Bas
345 787 VAN OS STEFAN 07:31:48:000 E 90 242.65 HAAKSBERGEN, Pays-Bas
346 208 GELENS ERWIN 07:32:03:000 D 153 170.20 BREDA, Pays-Bas
347 4283 CONIJN BRAM 07:32:18:000 C 75 259.90 WORMER, Pays-Bas
348 123 CLEMENT LAURENT 07:32:22:000 D 154 169.05 ANNONAY, France
349 6433 RUIZ ESTRAMIANA JESUS 07:32:23:000 C 76 258.75 MADRID, ESPAGNE
350 1049 HAAST MARC 07:32:37:000 D 155 167.90 EINDHOVEN, Pays-Bas
351 1221 DEKREON PIERRE 07:32:46:000 E 91 241.50 RUELISHEIM, FRANCE
352 3901 VAN DE KIEBOOM WOBBE 07:33:00:000 D 156 166.75 LEIDEN, Pays-Bas
353 2633 VERSTRAETEN HERMAN 07:33:03:000 E 92 240.35 MELSELE, BELGIQUE
354 3829 VAN KAPELLE WIM 07:33:26:000 E 93 239.20 ETHEN, Pays-Bas
355 155 COUDERETTE THIERRY-PIERRE 07:33:30:000 E 94 238.05 ROCHETAILLEE SUR SAONE, FRANCE
356 1239 HEIJLTJES HENRI 07:33:31:000 D 157 165.60 NIJMEGEN, Pays-Bas
357 307 GAUTHIER SEBASTIEN 07:33:37:000 D 158 164.45 ST SORLIN EN BUGEY, FRANCE
358 269 HEESEN ERIK 07:33:38:000 C 77 257.60 BINGELRADE, Pays-Bas
359 483 HAAST JOHN 07:33:41:000 E 95 236.90 RIJSBERGEN, Pays-Bas
360 4781 BONFILS FREDERIC 07:33:42:000 D 159 163.30 FONTAINE LES DIJON, FRANCE
361 1690 HAESEVOETS JOHAN 07:33:43:000 E 96 235.75 ALKEN, BELGIQUE
362 2425 HUBERS HENNIE 07:33:43:000 E 97 234.60 VINKEL, Pays-Bas
363 1605 MEGGELAARS JOEL 07:33:44:000 C 78 256.45 ESCHAREN, Pays-Bas
364 505 VAN DEN BERSSELAAR MARTIJN 07:33:48:000 D 160 162.15 HEEZE, Pays-Bas
365 966 PETERSEN BRUNO 07:33:48:000 D 161 161.00 Albertslund, Danemark
366 5019 RIJBERING MARTIJN 07:33:50:000 D 162 159.85 ROTTERDAM, Pays-Bas
367 960 DEGRANGE FRANCOIS 07:33:53:000 E 98 233.45 PARCIEUX, FRANCE
368 1815 DONNISON JON 07:33:56:000 D 163 158.70 SURRY HILLS, AUSTRALIE
369 12 FRAISSINET NICOLAS 07:34:18:000 D 164 157.55 BESSENAY, FRANCE
370 6352 MUTSAERS MARTIJN 07:34:20:000 D 165 156.40 DEN HAAG, Pays-Bas
371 5863 LACOULINE MICHEL 07:34:22:000 E 99 232.30 URIAGE, FRANCE
372 475 NOORDIJK AB 07:34:26:000 E 100 231.15 GOES, Pays-Bas
373 1288 VRIJDERS CHRIS 07:34:27:000 D 166 155.25 BUGGENHOUT, BELGIQUE
374 2399 VERSCHUREN NICK 07:34:27:000 E 101 230.00 HANK, Pays-Bas
375 4350 HAYCRAFT MARK 07:34:35:000 E 102 228.85 LARAGNE MONTEGLIN, FRANCE
376 1900 BRIANCE STEVEN 07:35:25:000 D 167 154.10 LEICS, Royaume-Uni
377 375 COMBIER DENIS 07:35:28:000 D 168 152.95 SERRIERES, FRANCE
378 4947 DELAGE MARC 07:35:28:000 E 103 227.70 ROQUEVAIRE, FRANCE
380 964 RUTS GUY 07:35:40:000 D 169 151.80 WEELDE, BELGIQUE
381 2209 WAUTERS GEERT 07:35:40:000 D 170 150.65 LOKEREN, BELGIQUE
382 908 MOORTGAT PAUL 07:35:55:000 E 104 226.55 HULSHOUT, BELGIQUE
383 6323 SWART REINOUT 07:35:56:000 C 80 254.15 ROTTERDAM, Pays-Bas
384 2969 WAGEMAKERS EDWARD 07:36:05:000 D 171 149.50 OOSTERHOUT, Pays-Bas
385 6482 VAN DE MORTEL HANS 07:36:05:000 E 105 225.40 DEURNE, Pays-Bas
386 687 SCALES RICHARD 07:36:07:000 D 172 148.35 VALBONNE, FRANCE
387 1967 BERRETTA MARCO 07:36:30:000 E 106 224.25 CARCARE, ITALIE
388 2038 BLOOMER PAUL 07:36:32:000 C 81 253.00 COOKSTOWN, 52
390 406 DRAAIJER JURJEN 07:37:04:000 D 173 147.20 BUSSUM, Pays-Bas
391 4586 MATHIASEN JOHN 07:37:04:000 E 107 223.10 HOLSTEBRO, DANEMARK
392 4331 MICHEL LAURENT 07:37:07:000 D 174 146.05 merignac, FRANCE
393 8790 PREBOIS GUILLAUME 07:37:14:000 D 175 144.90 BOIS COLOMBES, FRANCE
394 3907 UYTENHAAK TIJL 07:37:18:000 C 82 251.85 LEIDEN, Pays-Bas
395 1340 MULLER JAN 07:37:35:000 D 176 143.75 TORGON, SUISSE
396 553 BORGHGRAEF YANNICK 07:37:51:000 C 83 250.70 KRUIBEKE, BELGIQUE
397 887 SCHROIFF THOMAS 07:37:59:000 D 177 142.60 HEUSENSTAMM, ALLEMAGNE
398 1090 TUYPENS CHRISTIAN 07:37:59:000 E 108 221.95 GERAARDSBERGEN, BELGIQUE
399 529 DE BOER KORJUN 07:38:04:000 D 178 141.45 CASTRICUM, Pays-Bas
401 1252 HAINES TOM 07:38:13:000 D 179 140.30 LEICESTERSHIRE, Royaume-Uni
402 2653 VAN DEN BROECK JURGEN 07:38:13:000 D 180 139.15 KONTICH-WAARLOOS, BELGIQUE
403 3870 TERRIER PHILIPPE 07:38:15:000 E 109 220.80 PERONNAS, FRANCE
404 5796 VIDELIER PHILIPPE 07:38:22:000 E 110 219.65 L ETOILE, FRANCE
405 310 CLEMENSON YVES 07:38:36:000 E 111 218.50 Unieux, France
406 263 BERNEY GILLES 07:39:07:000 D 181 138.00 LE SENTIER, SUISSE
407 1609 DIJKSTRA DREEUWES 07:39:08:000 E 112 217.35 DUIVEM, Pays-Bas
408 1311 LECOCQ MICHAEL 07:39:09:000 C 84 249.55 KESSEL-LO, BELGIQUE
409 221 VILASECA GONZALO 07:39:17:000 C 85 248.40 ARMENTERA GIRONA, ESPAGNE
410 127 VINIT ANDRE 07:39:37:000 E 113 216.20 MEYLAN, FRANCE
411 20 MONZIER ANA 07:39:37:300 A 1 345.00 VALBONNE, FRANCE
412 3587 VITOUX THIERRY 07:39:38:000 D 182 136.85 AMAY, Belgique
413 1953 BURGERJON DATE 07:39:42:000 C 86 247.25 LEEUWARDEN, Pays-Bas
414 1203 BRIJDER BERTIJN 07:39:48:000 D 183 135.70 Heerenveen, Pays-Bas
415 2055 SAGE BRUNO 07:39:52:000 E 114 215.05 POMMIERS LA PLACETTE, FRANCE
416 6548 VIALA REMY 07:39:54:000 C 87 246.10 VILLEURBANNE, FRANCE
417 2110 BERTRAND PHILIPPE 07:39:57:000 E 115 213.90 COURNON, FRANCE
418 722 KRIJNEN MICHAEL 07:40:01:000 D 184 134.55 SPANBROEK, FRANCE
419 6542 LEBURTON MATHIEU 07:40:22:000 C 88 244.95 FESCHE LE HAUT CLOCHE, BELGIQUE
420 6137 JUHEN SéBASTIEN 07:40:26:000 C 89 243.80 MIJOUX, FRANCE
422 837 CARRARA PIETRO 07:40:30:000 D 185 133.40 LANGHIRANO, ITALIE
423 1898 MASSIERA FRANCK 07:40:31:000 D 186 132.25 COUFFOULENS, FRANCE
424 6923 LEJOLY FRANK 07:40:36:000 D 187 131.10 MALMEDY, BELGIQUE
425 2873 SELLESLAGH GUNTER 07:40:38:000 D 188 129.95 ST KATELIJNE WAVER, BELGIQUE
426 1093 VANDERHASSELT KAREL 07:40:43:000 E 116 212.75 KOBBEGEM, Belgique
427 8685 OUDE OPHUIS ROLAND 07:40:43:000 D 189 128.80 AMSTERDAM, Pays-Bas
428 717 VRANKEN LUC 07:40:45:000 D 190 127.65 MAASMECHELEN, BELGIQUE
429 1470 MOUTHAAN RICADO 07:40:46:000 C 91 241.50 SPIJKENISSE, Pays-Bas
430 1059 JONNY CHRISTSEN 07:40:55:000 E 117 211.60 SOBORG, DANEMARK
431 1350 KOHLER KLAUS 07:40:55:000 D 191 126.50 SCHWAZ, 1
432 108 FREZIERES JEROME 07:40:58:000 D 192 125.35 MAISONS ALFORT, FRANCE
433 3408 VISANI VALERIO 07:40:59:000 E 118 210.45 OZZANO EMILIA, ITALIE
434 3283 PRONK FABRICE 07:41:07:000 C 92 240.35 2713TJ, Pays-bas
435 197 HURTER JEAN-MICHEL 07:41:09:000 F 16 327.75 AUBIGNAN, FRANCE
436 995 WOLTER MICHAEL 07:41:31:000 E 119 209.30 RINGSTED, DANEMARK
437 2377 VAN DE KLUNDERT PETER 07:41:32:000 E 120 208.15 WOENSDRECHT, Pays-Bas
438 551 DE LOOR EMMANUEL 07:41:34:000 E 121 207.00 GENTBRUGGE, BELGIQUE
439 1255 ENTWISTLE CRAIG 07:41:34:000 D 193 124.20 FAUCON, FRANCE
440 3750 MORENO LATORRE JUAN 07:41:34:000 D 194 123.05 UBEDA (JAEN), ESPAGNE
441 4744 LOBELLO ALDO 07:41:35:000 E 122 205.85 RIVALTA BORMIDA AL, ITALIE
442 3276 REINERINK EDDY 07:41:36:000 D 195 121.90 HARBRINKHOEK, Pays-Bas
443 1626 VAN DEN EECKHOUT JAN 07:41:37:000 D 196 120.75 KERKSEN, BELGIQUE
444 2896 VAN LOOY PAUL 07:41:38:000 E 123 204.70 GEEL, Belgique
445 2000 HERTEL CHRISTIAN 07:41:50:000 D 197 119.60 ALLEROED, DANEMARK
446 1287 PIETERS BART 07:41:53:000 E 124 203.55 LIERDE, BELGIQUE
447 5716 ARREGI AITOR 07:41:54:000 D 198 118.45 AZPEITIA, ESPAGNE
448 4739 SAMAARITANI MAURO 07:41:57:000 C 93 239.20 , ITALIE
449 265 SCHUPBACH LAURENT 07:41:58:000 D 199 117.30 LE BRASSUS, Suisse
450 2846 BAJARD CHRISTIAN 07:42:02:000 F 17 326.60 VIENNE, FRANCE
451 236 BRAILLON GREGORY 07:42:05:000 C 94 238.05 APPRIEU, France
452 295 HEINIS PATRICE 07:42:14:000 D 200 116.15 HIRSINGUE, FRANCE
453 2620 GAGNAIRE PATRICE 07:42:14:000 D 201 115.00 SORBIERS, FRANCE
454 1347 MIES CHRIS 07:42:18:000 D 202 113.85 ESSEN, BELGIQUE
455 2665 SPIERINGS BART 07:42:18:000 C 95 236.90 GEMERT, Pays-Bas
456 137 JEANDEL FRANCIS 07:42:20:000 G 3 342.70 Mirecourt, France
457 3996 HAGEDOORN ERIC-JAN 07:42:30:000 D 203 112.70 GOUDERAK, Pays-Bas
458 6637 SLOOF STEVEN 07:42:38:000 E 125 202.40 GRONINGEM, Pays-Bas
459 3494 LUCARINI VINCENZO 07:42:43:000 D 204 111.55 , ITALIE
460 767 FOURNIER JEROME 07:43:08:000 E 126 201.25 MARTIGNY, Suisse
461 2932 VAN DE LAAR EDWIN 07:43:08:000 D 205 110.40 OOSTERHOUT, Pays-bas
462 404 JANSSEN JAN-WILLEM 07:43:11:000 D 206 109.25 OPLOO, Pays-Bas
463 2389 HERIJGERS LEO 07:43:20:000 D 207 108.10 RIJSBERGEN, Pays-Bas
464 354 SMITS ERIC 07:43:30:000 E 127 200.10 NIEUWERKENK A.D. IJSSEL, Pays-Bas
465 3395 VAN DIS JAN 07:43:34:000 E 128 198.95 FIJNAART, Pays-Bas
466 5308 SANJUAN AUGUSTIN 07:43:34:000 E 129 197.80 Yverdon-les-Bains, Suisse
467 1474 WORTELBOER HERMAN 07:43:37:000 C 96 235.75 , Pays-Bas
468 52 PASTOR JOSE LUIS 07:44:03:000 C 97 234.60 TRAVAILLAN, FRANCE
469 1880 NERINCX JOZEF 07:44:03:000 E 130 196.65 HERNE, BELGIQUE
470 21 FORD MICHAEL 07:44:16:000 E 131 195.50 BRISTOL, Royaume-uni
471 3553 HOFMIJSTER MATHIJS 07:44:16:000 C 98 233.45 HAARLEM, Pays-Bas
472 8422 ROLANDO LORENZI 07:44:16:000 E 132 194.35 BUSSOLENGO, ITALIE
473 5085 MOL WIM 07:44:36:000 D 208 106.95 Hollandscheveld, Pays-Bas
474 3124 VAN DER WAL MARTIN 07:44:43:000 C 99 232.30 GOUDA, Pays-Bas
476 96 THOMASSON CHRISTOPHE 07:44:56:000 D 210 104.65 CIVRIEUX, FRANCE
477 5190 HEIDMEIJER JAN WILLEM 07:44:59:000 D 211 103.50 TILBURG, Pays-Bas
478 2063 CHAZEL LAURENT 07:45:02:000 E 133 193.20 MONTELIMAR, FRANCE
479 8663 ROSELL DIAZ MARIO 07:45:24:000 D 212 102.35 TALAVERA REINA (TOLEDO), ESPAGNE
480 2487 WILLEMS MARTIJN 07:45:28:000 D 213 101.20 WIJK BIJ DUURSTEDE, Pays-Bas
481 2490 HOUBEN ROEL 07:45:39:000 C 100 231.15 TILBURG, Pays-Bas
482 3949 MUURMANS MAARTEN 07:45:39:000 D 214 100.05 Utrecht, Pays-Bas
483 175 SURAY PATRICK 07:46:04:000 F 18 325.45 NICE, FRANCE
484 2105 LAURADOUX ALAIN 07:46:04:000 F 19 324.30 COURNON D AUVERGNE, France
485 592 MULDERIJ GERT 07:46:06:000 D 215 98.90 Elim, Pays-Bas
486 107 SMITH RAYMOND 07:46:07:000 F 20 323.15 MONTE CARLO, 24
487 186 LEMMENS MAURITS 07:46:07:000 E 134 192.05 LIER, BELGIQUE
488 959 PETERS DANIEL 07:46:19:000 D 216 97.75 MAASTRICHT, Pays-Bas
489 750 DAL POZZO MARCO 07:46:28:000 E 135 190.90 , ITALIE
490 791 VARENNE CHRISTOPHE 07:46:28:000 D 217 96.60 BEAUZAC, FRANCE
491 685 CIALDELLA DONATO 07:46:31:000 D 218 95.45 BREMGARTEN, SUISSE
492 114 DURANTON ERIC 07:46:33:000 E 136 189.75 SAINT ETIENNE, FRANCE
493 782 RYCKBOSCH JAN 07:46:47:000 D 219 94.30 MELSELE, Belgique
494 2246 ROSSAT FABRICE 07:46:58:000 D 220 93.15 SAINT JEAN DE MAURIENNE, FRANCE
495 2107 CHEYNOUX BERNARD 07:47:00:000 F 21 322.00 COURNON, FRANCE
496 949 VANDAMME RONNY 07:47:01:000 E 137 188.60 WERVIK, BELGIQUE
497 6254 BURTON JAMES 07:47:01:000 D 221 92.00 AMSTERDAM, Pays-Bas
498 456 CAIRNS EVERT 07:47:02:000 D 222 90.85 DEN HAAG, Pays-Bas
499 2899 BOISSEAU ERIC 07:47:02:000 E 138 187.45 BEAUCOUZE, FRANCE
500 2901 ALEXANDER DANIEL 07:47:07:000 D 223 89.70 NOTTINGHAM, Royaume-Uni
501 3948 WIJDEVELD MICHIEL 07:47:10:000 D 224 88.55 NIJMEGEN, Pays-Bas
502 308 FUVELLE RAYMOND 07:47:12:000 E 139 186.30 ROCHE LA MOLIERE, FRANCE
503 4421 BLANC PHILIPPE 07:47:12:000 E 140 185.15 BOURGOIN JALLIEU, FRANCE
504 85 UBERTO GILLES 07:47:16:000 E 141 184.00 VOIRON, FRANCE
505 5088 VAN BERKEL JORIS 07:47:29:000 C 101 230.00 HOUTEN, Pays-Bas
506 655 CRESPY BRUNO 07:47:31:000 D 225 87.40 CLARET, FRANCE
507 2540 PIJPERS LUC 07:47:32:000 D 226 86.25 ARENDONK, BELGIQUE
508 738 COLBEAR JON 07:47:35:000 C 102 228.85 ASHFORD, Royaume-Uni
509 688 ROBERTSON STUART 07:47:36:000 D 227 85.10 BEAUSOLEIL, FRANCE
510 4311 CHAILLOUX REGIS 07:47:36:000 F 22 320.85 ROSNY SOUS BOIS, FRANCE
511 1505 STEVENS BART 07:47:38:000 C 103 227.70 DEN BOSCH, Pays-Bas
512 283 MOORE CHRISTOPHER 07:47:39:000 E 142 182.85 ALPE D'HUEZ, FRANCE
513 963 ZYWEK MACIEJ 07:48:07:000 D 228 83.95 WARSZAWA, 28
514 4150 WOUTERS ANTON 07:48:12:000 C 104 226.55 HULL, Royaume-Uni
515 6903 SINGERLAND GERWIN 07:48:18:000 D 229 82.80 ZOETERMEER, Pays-Bas
516 8786 SESA FRANCK 07:48:26:000 C 105 225.40 , FRANCE
517 958 VAN DE SANDE GUY 07:48:36:000 D 230 81.65 HILLEGEM, BELGIQUE
518 4332 MARTINELLI FABIO 07:48:48:000 D 231 80.50 FORMIGINE, ITALIE
519 494 VIAL IVAR 07:48:59:000 D 232 79.35 VEGHEL, Pays-Bas
520 1063 SKALS JAN GERBERG 07:49:05:000 F 23 319.70 AALBORG, Danemark
521 262 FERLAND MARC 07:49:08:000 E 143 181.70 LE SENTIER , SUISSE
522 4066 BRAEM GEERT 07:49:18:000 E 144 180.55 DIKKEBUS, BELGIQUE
523 5122 BISCAREL LAURENT 07:49:18:000 D 233 78.20 DRAGUIGNAN, FRANCE
524 128 CELLIER JEAN PIERRE 07:49:19:000 E 145 179.40 CRAPONNE, FRANCE
525 2499 DEKKER EDWIN 07:49:25:000 D 234 77.05 OOSTERHOUT, Pays-Bas
526 4333 MAES PETER 07:49:32:000 D 235 75.90 nijlen, BELGIQUE
527 1564 VAN LOO GERRIT 07:49:33:000 D 236 74.75 THARD, Pays-Bas
528 1808 DE SMET YVES 07:49:36:000 D 237 73.60 ZOTTEGEM, BELGIQUE
529 4974 MILLO JEAN PIERRE 07:49:37:000 E 146 178.25 MENTON, FRANCE
530 1106 BROUWER PETER 07:49:43:000 E 147 177.10 AMERSFOORT, Pays-Bas
531 4734 Daniele Bertozzi 07:49:54:000 E 148 175.95 Santarcangelo di R. (RN), ITALIE
532 6643 MARTINELLO MANUEL 07:49:54:000 C 106 224.25 , ITALIE
533 1021 NOELS GEERT 07:50:02:000 D 238 72.45 EMBLEM, BELGIQUE
534 174 COLOMBIER DAVID 07:50:05:000 D 239 71.30 CALUIRE ET CUIRE, FRANCE
535 2592 RAPOL DIRK 07:50:08:000 E 149 174.80 KORTRIJK MARKE, BELGIQUE
536 675 ROBERT GILLES 07:50:12:000 E 150 173.65 LE PERREUX SUR MARNE, FRANCE
537 3844 LAURENT PASCAL 07:50:39:000 E 151 172.50 ROMANS, FRANCE
538 798 VAN LIJDEN PAUL 07:50:45:000 E 152 171.35 HOUTEN, Pays-Bas
539 3583 VERGNE JOEL 07:51:03:000 D 240 70.15 ATHIS MONS, FRANCE
540 2801 PEERS STEVEN 07:51:04:000 C 107 223.10 KRUISHOUTEM, BELGIQUE
541 4176 RIOU CORENTIN 07:51:04:000 C 108 221.95 UROU ET CRENNES, FRANCE
542 331 FERRER SALAT SERGI 07:51:05:000 D 241 69.00 BARCELONA, ESPAGNE
543 271 LEVELT WILLEM 07:51:08:000 D 242 67.85 RIJSWIJK, Pays-Bas
544 3747 DEBERTIN DIRK 07:51:09:000 D 243 66.70 KARLSRUHE, Allemagne
545 5614 LEFEBVRE YVES 07:51:24:000 D 244 65.55 NICE, FRANCE
546 6320 HAHNEL BEN 07:51:29:000 D 245 64.40 RICHEMOND, 11
547 3475 CROCICCHIA MARCO 07:51:43:000 E 153 170.20 , ITALIE
548 2772 BOYER CHRISTIAN 07:51:49:000 D 246 63.25 COURNON, FRANCE
549 2272 BLANJAAR HANS 07:51:51:000 F 24 318.55 MALDEN, Pays-Bas
550 1083 DONCKERS HUGO 07:51:55:000 E 154 169.05 MERKSPLAS, BELGIQUE
551 4347 ALIX PASCAL 07:51:57:000 C 109 220.80 LA GARDE, FRANCE
552 1233 BYSKOV THOMSEN STEEN 07:52:05:000 F 25 317.40 KARLSLUNDE, DANEMARK
553 581 LAMERS RENE 07:52:09:000 D 247 62.10 ROTTERDAM, Pays-Bas
554 1481 SCHAKEL JOHN 07:52:10:000 D 248 60.95 AMERSFOORT, Pays-Bas
555 316 GELEY PATRICK 07:52:23:000 E 155 167.90 CHARETTE, FRANCE
556 834 LANINI MIRKO 07:52:24:000 C 110 219.65 SAN GIOVANNI VALDARNO, ITALIE
557 4063 VAN WEEHAEGE LUC 07:52:26:000 E 156 166.75 VLAMERTINGE, BELGIQUE
558 5349 DIBETTA FRANCOIS 07:52:28:000 D 249 59.80 MONTCEAU LES MINES, FRANCE
559 1992 CHAUSSADAS DAVID 07:52:29:000 C 111 218.50 TOULON, FRANCE
560 330 FERNADEZ ANGEL 07:52:52:000 E 157 165.60 BARCELONA, ESPAGNE
561 863 DI ROSA ALESSANDRO 07:52:53:000 D 250 58.65 CARATE BRIANZA (MI), ITALIE
562 622 RAEYMAEKERS LUC 07:53:00:000 D 251 57.50 RETIE, BELGIQUE
563 2790 CIAUDANO CARLA 07:53:05:000 A 2 343.85 MONACO, FRANCE
564 3122 HARREVELT LENNART 07:53:32:000 C 112 217.35 DELFT, Pays-Bas
565 4513 BASSOT PATRICK 07:53:34:000 F 26 316.25 QUISSAC, FRANCE
566 288 FRAISSE PATRICK 07:53:35:000 E 158 164.45 CHARLY, FRANCE
567 1283 DE WAELE PETER 07:53:38:000 E 159 163.30 HOFSTADE, Belgique
568 1956 DE BOER HANS 07:53:38:000 D 252 56.35 HOMMERTS, Pays-Bas
569 167 BIANCO EMMANUEL 07:53:42:000 C 113 216.20 TOURRETTE LEVENS, FRANCE
570 3423 CASARI GIULIANO 07:53:48:000 D 253 55.20 CALDERARA DI RENO BO, ITALIE
571 615 JOHANSEN MOGENS 07:53:49:000 E 160 162.15 RIBE, DANEMARK
572 1116 DE BOS ERIC 07:53:55:000 D 254 54.05 WESTERVOORT, Pays-Bas
573 664 VERMEIRE WIM 07:54:08:000 E 161 161.00 OOSTENDE, BELGIQUE
574 2548 VANEECKHOUTTE KARL 07:54:11:000 C 114 215.05 VICHTE, BELGIQUE
575 8905 TOURNIER FRANCK 07:54:11:000 C 115 213.90 LE BIOT, FRANCE
576 3833 GAUDEFROY CHRISTOPHE 07:54:19:000 C 116 212.75 ROCBARDON, FRANCE
577 672 PLOMPEN PATRICK 07:54:44:000 E 162 159.85 KAPELLEN, BELGIQUE
578 571 HUISING JAN-WILLEM 07:54:45:000 D 255 52.90 WATERINGEN, Pays-Bas
579 6525 CASIER YVES 07:54:47:000 D 256 51.75 BREDENE, BELGIQUE
580 1094 VANDERHASSELT KLAAS 07:54:48:000 ElitH 2 343.85 KOBBEGEM, BELGIQUE
582 125 MICHEL CHRISTOPHE 07:54:53:000 D 257 50.60 BOURG SAINT MAURICE CEDEX, FRANCE
583 2090 VERMASSEN PETER 07:54:56:000 D 258 49.45 HERZELE, BELGIQUE
584 5455 TOGNI DAVIDE 07:54:58:000 C 117 211.60 VALBREMBO, ITALIE
585 2287 VERHEYE JEROEN 07:54:59:000 C 118 210.45 Merelbeke, Belgique
586 955 LAURIDSEN HANS BOEL 07:55:00:000 E 164 157.55 ESBJERG OE, DANEMARK
587 774 DE MOOR TIM 07:55:10:000 D 259 48.30 ZOTTEGEM, BELGIQUE
588 2419 BROEREN JOS 07:55:15:000 E 165 156.40 EMPEL, Pays-Bas
589 122 DECONIHOUT JACKY 07:55:18:000 F 27 315.10 SAINT PIERRE DE LA FAGE, FRANCE
590 1068 VAN KERCKHOVEN DANY 07:55:18:000 E 166 155.25 LUMMEN, BELGIQUE
591 4231 OKUSZKO KRZYSZTOF 07:55:20:000 D 260 47.15 SZCZECIN, 28
592 4431 STEFFENS MARTIN 07:55:21:000 C 119 209.30 FREIBURG, ALLEMAGNE
593 3362 NIELSEN MICHAEL 07:55:23:000 D 261 46.00 FREDERIKSVAERK, Danemark
594 2771 BUSCAGLIA ANTONELLO 07:55:26:000 E 167 154.10 ARMA DI TAGGIA, ITALIE
595 931 SORENSEN CARSTEN HOLM 07:55:27:000 D 262 44.85 ESBJERG, DANEMARK
596 1816 MARTIN NICOLAS 07:55:35:000 D 263 43.70 SPAY, FRANCE
597 1489 BALS RICHARD 07:55:36:000 D 264 42.55 ROOSENDAAL, Pays-Bas
598 1628 BAKKER MARK 07:55:36:000 C 120 208.15 DEN HELDER, Pays-Bas
600 781 KARDINAAL EDWARD 07:55:40:000 D 265 41.40 OUDKARSPEL, Pays-Bas
601 4442 LUMINI LUCA 07:55:40:000 D 266 40.25 FORLI, ITALIE
602 2692 ZURBACH NICOLAS 07:55:41:000 E 168 152.95 PARIS, FRANCE
603 6247 SMITH PETER 07:55:50:000 E 169 151.80 HOBART, 11
604 3483 MELCHIORI MATTEO 07:55:54:000 C 121 207.00 FELTRE-BELLUNO, ITALIE
605 2292 TE BOEKHORST WANDER 07:55:57:000 D 267 39.10 GAANDEREN, Pays-Bas
606 343 WIETKIN ARTHUR 07:55:59:000 F 28 313.95 NASSOGNE, BELGIQUE
607 146 DOUETTE HERVE 07:56:07:000 D 268 37.95 LUXEUIL LES BAINS, FRANCE
608 8796 VAN MEGGELEN ROB 07:56:09:000 E 170 150.65 AMSTERDAM, Pays-Bas
609 356 297814 VAN DEN BERG 07:56:13:000 F 29 312.80 ,
610 1040 ZACHARIASSEN HENRIK 07:56:16:000 E 171 149.50 VAERLOSE, DANEMARK
611 3523 ROBERT JEAN LUC 07:56:17:000 E 172 148.35 ST CHAMOND, FRANCE
612 75 FOULOUNOUX THIERRY 07:56:18:000 E 173 147.20 PARIS, FRANCE
613 1878 TASSAERT MAXIM 07:56:20:000 D 269 36.80 TIELT, BELGIQUE
614 4627 HOFFMANN DOMINIQUE 07:56:23:000 F 30 311.65 LIVERDUN, France
615 4346 PACHOT J.PHILIPPE 07:56:28:000 E 174 146.05 LE VAL ST GERMAIN, FRANCE
616 2533 VENINGA JOHAN 07:56:30:000 D 270 35.65 WOLVEGA, Pays-bas
617 2104 PONCETTA JEAN YVES 07:56:38:000 F 31 310.50 MARINGUES, FRANCE
618 4406 LACROIX CLAUDE 07:56:48:000 E 175 144.90 GEMBLOUX, BELGIQUE
619 1222 DOWLING JOHN 07:57:00:000 E 176 143.75 HEMEL HEMPSTEAD, Royaume-Uni
620 196 BREILLY MARC ANTOINE 07:57:06:000 D 271 34.50 LA FARLEDE, FRANCE
621 497 SLEEGERS JOHAN 07:57:06:000 E 177 142.60 VELDHOVEN, Pays-Bas
622 5269 PLAUBORG HANS 07:57:12:000 D 272 33.35 AABENRAA, DANEMARK
623 89 ROSSO JEAN PIERRE 07:57:13:000 G 4 341.55 ANTIBES, FRANCE
624 3550 HOMMEL FRANS 07:57:26:000 E 178 141.45 OUD VOSSEMEER, Pays-Bas
625 136 SIOHAN FRANCOIS 07:57:32:000 G 5 340.40 COLLEX, SUISSE
626 4173 GOSSET J.MARC 07:57:34:000 E 179 140.30 HARGICOURT, FRANCE
627 677 DE POTTER GINO 07:57:51:000 E 180 139.15 ZINGEM, BELGIQUE
628 1265 SCHAILLIE PETER 07:58:01:000 E 181 138.00 GERAARDSBERGEN, BELGIQUE
629 2416 VAN DIJK FREDDY 07:58:02:000 C 122 205.85 S-HERTOGENBOSCH, Pays-Bas
630 6324 VAN BAKEL PAUL 07:58:04:000 C 123 204.70 UTRECHT, Pays-Bas
631 1845 BOLLE PASCAL 07:58:05:000 E 182 136.85 GENEVE, SUISSE
632 359 LE LIGNE THIERRY 07:58:06:000 E 183 135.70 BRIANCON, FRANCE
633 1367 BERNAGIE LUC 07:58:10:000 E 184 134.55 ZOTTEGEM, BELGIQUE
634 1996 ROSSET ALAIN 07:58:10:000 D 273 32.20 TOULON, FRANCE
635 638 GEAY PHILIPPE 07:58:11:000 E 185 133.40 DIJON, FRANCE
636 2026 BORRELL ANTON 07:58:13:000 D 274 31.05 ANDORRA LA VELLA, 25
637 1034 COOLS DIRK 07:58:15:000 E 186 132.25 ESSEN, BELGIQUE
638 2963 TURPIN LOIC 07:58:16:000 C 124 203.55 LIMAY, FRANCE
639 164 WILSCHUT MAARTEN-JAN 07:58:17:000 D 275 29.90 BARENDRECHT, Pays-Bas
640 561 LIEM DJOEN 07:58:21:000 E 187 131.10 AMSTERDAM, Pays-Bas
641 1989 CHEVROLET ARNE 07:58:25:000 C 125 202.40 TIELT, BELGIQUE
642 100 AIME PHILIPPE 07:58:28:000 E 188 129.95 VENELLES, FRANCE
643 5847 ROUAIX GERALD 07:58:30:000 D 276 28.75 REYRIEUX, FRANCE
644 6692 DE WITTE LIEVEN 07:58:30:000 D 277 27.60 BERTRANGE, LUXEMBOURG
645 2933 VERMEIRE JOHAN 07:58:35:000 E 189 128.80 WAARSCHOOT, BELGIQUE
646 4705 VAN DEN NOBELEN JAN 07:58:43:000 D 278 26.45 BOSSCHENHOOTD, Pays-Bas
647 286 BIZIEN ROLAND 07:58:48:000 D 279 25.30 BREST, FRANCE
648 733 SEVENOIS WIM 07:58:55:000 E 190 127.65 WAARSCHOOT, BELGIQUE
649 990 GROEN TOKE 07:59:02:000 C 126 201.25 HERNING, DANEMARK
650 820 MANUNZA ANTONIO 07:59:04:000 E 191 126.50 VIGONE, ITALIE
651 5005 ALCALA MONTANES FERNANDO 07:59:11:000 D 280 24.15 GRANOLLERS, ESPAGNE
652 473 KLUYTMANS PETER 07:59:17:000 E 192 125.35 NIJKERK, Pays-Bas
653 3998 PERRET JEAN PIERRE 07:59:20:000 C 127 200.10 AMSTERDAM, Pays-Bas
654 4787 CURCIO ALEXANDRE 07:59:20:000 D 281 23.00 GRENOBLE, FRANCE
655 91 PERRIN JEAN 07:59:21:000 F 32 309.35 JUAN LES PINS, FRANCE
656 2898 DUPONT J.YVES 07:59:23:000 E 193 124.20 AVRILLE, FRANCE
657 2297 HERIJGERS AD 07:59:24:000 E 194 123.05 RIJSBERGEN, Pays-Bas
658 3614 PONCET SEBASTIEN 07:59:26:000 D 282 21.85 ST PRIVE, FRANCE
659 3863 VERHOEVEN ROLAND 07:59:27:000 E 195 121.90 LEDEBERG (GENT), BELGIQUE
660 2617 BOSSU NOEL 07:59:31:000 D 283 20.70 SORBIERS, FRANCE
661 6215 ROTMAN GERRIT 07:59:31:000 E 196 120.75 WILSUM, Pays-Bas
662 2537 DIELEMAN FRANK 07:59:36:000 D 284 19.55 HOOGSTRATEN, BELGIQUE
663 5522 GRONBEK JENS 07:59:38:000 C 128 198.95 FREDERIKSSUND, DANEMARK
664 1036 VAN GASTEL HEKMAN 07:59:39:500 E 197 119.60 NISPEN, Pays-Bas
665 6376 KLEIN BOB 07:59:39:800 D 285 18.40 NIEUWE NIEDOPBOB, Pays-Bas
666 118 BARRETO FRANCISCO 07:59:46:000 E 198 118.45 JARRIE, FRANCE
667 1976 CARLE JULIEN 08:00:03:000 C 129 197.80 SAINT CHAMOND, FRANCE
668 1579 HUYGENS MARC 08:00:09:000 E 199 117.30 , BELGIQUE
669 4223 GALSTER DANIEL 08:00:17:000 F 33 308.20 LES VERRIèRES, Suisse
670 6933 VOGELS WILLIAM 08:00:25:000 C 130 196.65 TESSENDERLO, BELGIQUE
671 3337 VOETS NICO 08:00:28:000 D 286 17.25 HELCHTEREN, BELGIQUE
672 1804 SINOT PATRICK 08:00:29:000 E 200 116.15 MARS LA TOUR, FRANCE
673 2214 DE VYLDER GEERT 08:00:31:500 E 201 115.00 Oostakker, Belgique
674 2385 BUURSTEE WIL 08:00:32:800 E 202 113.85 OUD GASTEL, Pays-Bas
675 1088 MICHIELS FILIP 08:00:35:000 D 287 16.10 LOKEREN, BELGIQUE
676 3843 DELEGLISE BRUNO 08:00:37:000 E 203 112.70 FONTCOUVERTE LA TOUSSUIRE, France
677 954 KERKVLIET CASPAR 08:00:42:000 C 131 195.50 AMSTERDAM, Pays-Bas
678 138 FOURNIER JEAN FRANCOIS 08:00:49:000 D 288 14.95 GARCHES, FRANCE
679 383 BELENGUER ROBERTO 08:00:55:000 E 204 111.55 ARLES, FRANCE
680 4703 VAN DONGEN JEAN PIERRE 08:00:56:000 C 132 194.35 MADE, Pays-Bas
681 1642 SUIJKER RIK 08:01:00:000 C 133 193.20 SCHIPLUIDEN, Pays-Bas
682 4219 BAETS FRANK 08:01:06:000 C 134 192.05 ARNHEM, Pays-Bas
683 347 MAGAND GUY 08:01:24:000 D 289 13.80 HUEZ EN OISANS, FRANCE
684 635 PAINTER RUSSELL 08:01:25:700 D 290 12.65 ANERLEY, Royaume-uni
685 1135 SCHELLENBACH JAN CEES 08:01:31:000 D 291 11.50 AMSTERDAM, Pays-Bas
686 467 VAN WAGENINGEN MARCO 08:01:37:000 D 292 11.50 ST GERMAIN L HERM, FRANCE
687 192 LAURENT ALAIN 08:01:41:000 F 34 307.05 LA TOUR DE SALVAGNY, FRANCE
688 427 VAN BRUGGEN GERARD 08:01:41:900 E 205 110.40 LEIDEN, Pays-Bas
689 103 COLLADO GAETAN 08:01:43:000 D 293 11.50 LA SEYNE S/MER, FRANCE
690 1990 WARBURTON MAX 08:01:48:900 D 294 11.50 LONDON, Royaume-Uni
691 3171 VAN DER BURGH DAAN 08:01:50:000 D 295 11.50 MILSBEEK, Pays-Bas
692 5936 FOUQUET PASCAL 08:01:55:100 E 206 109.25 DESVRES, FRANCE
693 4148 PEERMAN COLIN 08:02:07:000 D 296 11.50 BARNET, Royaume-Uni
694 2663 VINGERHOETS RUDI 08:02:12:000 E 207 108.10 ZOERSEL, BELGIQUE
695 3628 SAUVAGE THIBAULT 08:02:16:000 C 135 190.90 LAON, FRANCE
696 4736 MORRI STEFANO 08:02:24:000 C 136 189.75 CERASOLO RN, ITALIE
697 8090 SMIT PETER 08:02:24:000 C 137 188.60 BREDEVOORT, Pays-Bas
698 1369 ADRIAENSEN SEBASTIAAN 08:02:27:000 D 297 11.50 LEUVEN, BELGIQUE
699 5941 LEFEBVRE RAYMOND 08:02:27:600 F 35 305.90 SIX FOURS, FRANCE
700 970 JACOBS JAN 08:02:31:000 E 208 106.95 MINDERHOUT, BELGIQUE
701 5497 SNOEIJS ANDRE 08:02:32:000 D 298 11.50 RIJKEVORSEL, BELGIQUE
702 555 VERCAUTEREN HERMAN 08:02:34:000 E 209 105.80 KRUIBEKE-BELGIE, BELGIQUE
703 8789 CABANA I ESCALE JORDI 08:02:35:000 E 210 104.65 CAMPDEVANOL, ESPAGNE
704 411 ZIJLSTRA ERIK 08:02:38:000 D 299 11.50 HILKERSUM, Pays-Bas
705 1013 ROTHMANN MICHAEL 08:02:39:200 D 300 11.50 AARHUS, DANEMARK
706 3935 CHALKLIN JAMES 08:02:41:800 D 301 11.50 HOEILAART, BELGIQUE
707 1188 DUYFF JAN 08:02:41:900 C 138 187.45 LEIDEN, Pays-Bas
708 4659 MENNETEAU J.PHILIPPE 08:02:46:000 D 302 11.50 RILHAC-RANCON, FRANCE
709 656 MUTSAERS SANDER 08:02:47:100 D 303 11.50 AMSTERDAM, Pays-Bas
710 2178 KERGER PATRICK 08:02:50:000 E 211 103.50 GERAARDSBERGEN, BELGIQUE
711 1972 FIRPO EDOARDO 08:02:51:000 D 304 11.50 ARQUATA SCR (AL), ITALIE
712 8081 SCHUPBACH ALFRED 08:02:53:000 E 212 102.35 NIEDER HUNIGEN, SUISSE
713 3620 ENGELHARDT FREDDY 08:03:09:000 E 213 101.20 D.N. MISGAV, 54
714 606 MARTIN PAUL 08:03:12:500 E 214 100.05 BRENTWOOD ESSEX, Royaume-Uni
715 4639 PLUQUET JEAN-LUC 08:03:13:300 E 215 98.90 RILHAC-RANCON, FRANCE
716 4825 VAN LANGEN STEFAN 08:03:14:000 D 305 11.50 WIJCHEN, Pays-Bas
717 4826 SWART PATRICK 08:03:14:500 D 306 11.50 OVERASSELT, Pays-Bas
718 3798 GIOVANNI VASSENA 08:03:15:000 E 216 97.75 VALMADRERA, ITALIE
719 6655 SCHOTH GUUS 08:03:17:000 C 139 186.30 SINT MICHIELSGESTEL, Pays-Bas
720 1471 MOUTHAAN ROB 08:03:17:800 E 217 96.60 SPIJKENISSE, Pays-Bas
721 8929 VERHAGE ERIK 08:03:18:000 D 307 11.50 TERNEUZEN, Pays-Bas
722 836 FUMAROLA VINCENZA 08:03:18:400 AB 2 343.85 CANOSSA, ITALIE
723 1527 VAN DEN BERGH JOOP 08:03:23:000 E 218 95.45 SEVENUM, Pays-Bas
724 6638 PIENEMAN JORIS 08:03:25:600 C 140 185.15 MEPPEL, Pays-Bas
725 2139 DRUTEL DOMINIQUE 08:03:28:000 E 219 94.30 SAINT LAURENT DE MURE, France
726 2220 GIARDINO ALESSIO 08:03:28:400 C 141 184.00 LEUVEN, BELGIQUE
727 906 VAN DE VELDE RONALD 08:03:28:800 E 220 93.15 HEIST OP DEN BERG, BELGIQUE
728 2603 LEHMANN PETER 08:03:29:000 F 36 304.75 BERN, SUISSE
729 1219 MELCHIORSEN CLAUS 08:03:31:300 D 308 11.50 LYNGE, DANEMARK
730 3231 MANDIGERS SJAAK 08:03:31:700 E 221 92.00 BOXTEL, Pays-Bas
731 661 VAUDAN BERTRAND 08:03:33:700 D 309 11.50 LE CHABLE, SUISSE
732 678 HEROLD PETER 08:03:43:000 E 222 90.85 ROMA, ITALIE
733 6148 KOCH ROGIER 08:03:43:000 D 310 11.50 HILVERSUM, Pays-Bas
734 3551 MALET REMIY 08:04:01:000 E 223 89.70 MENDE, FRANCE
735 1253 VALANCE ALAN 08:04:02:000 E 224 88.55 LEICESTERSHIRE, Royaume-Uni
736 914 NOBLE BRYAN 08:04:04:600 E 225 87.40 TAUNTON, Royaume-Uni
737 5041 PACHOT STEPHANE 08:04:05:600 E 226 86.25 LE VAL ST GERMAIN, FRANCE
738 105 BINOT DANIEL 08:04:12:000 F 37 303.60 BOULOGNE S/MER, FRANCE
739 726 CLAUDE GILLES 08:04:21:600 E 227 85.10 LIMAY, FRANCE
740 1874 BROSSA ROMAIN 08:04:23:000 D 311 11.50 OLLIOULES, FRANCE
741 4777 DE JONG COR 08:04:33:000 E 228 83.95 RUCPHEN, Pays-Bas
742 2621 SEICHEPINE DIDIER 08:04:38:000 E 229 82.80 FRONTIGNY / MECLEUVES, FRANCE
743 6546 LAFARGE LIONEL 08:04:42:000 D 312 11.50 VILLEURBANNE, FRANCE
744 588 ROG LEO 08:04:46:000 D 313 11.50 WOERDEN, Pays-Bas
745 8935 GUIGNET PASCAL 08:04:51:000 E 230 81.65 JULIENAS, FRANCE
746 1891 SACCANI PAOLO 08:04:53:000 D 314 11.50 MONTECHIARUGOLO, ITALIE
747 506 VAN LEENDERS ROBERT 08:04:57:000 D 315 11.50 HEEZE, Pays-Bas
748 449 HEINEN OBBE 08:05:10:000 D 316 11.50 DENHAAG, Pays-Bas
749 298 CHAMPENOIS JEAN 08:05:18:000 D 317 11.50 CHIMAY, BELGIQUE
750 6375 NISSEN MIKAEL 08:05:28:000 ElitH 3 342.70 JELLING, DANEMARK
751 2751 BERTRAND EMMANUEL 08:05:31:000 D 318 11.50 RAMBOUILLET, FRANCE
752 3484 FRATTALONE GIUSEPPE 08:05:46:000 E 231 80.50 CASTELZANCO, ITALIE
753 4735 CASADEI FABIANO 08:05:48:000 C 142 182.85 MONTESCUDO RN, ITALIE
754 450 VAN SEETERS BRAM 08:05:49:000 D 319 11.50 MONTFOORT, Pays-Bas
755 4140 BARREDA BORT SANTIAGO 08:05:50:200 D 320 11.50 BENLLOCH, ESPAGNE
756 1319 SEGERS GEERT 08:05:56:000 E 232 79.35 Ertvelde, Belgique
757 4694 DE RUITER GERRT 08:06:03:000 D 321 11.50 VALKENBURG, Pays-Bas
758 933 VAN DEN ENDE PETER 08:06:05:000 E 233 78.20 NAALDWIJK, Pays-Bas
759 4767 MENOZZI FRANCESCO 08:06:05:000 D 322 11.50 REGGIO EMILIA, ITALIE
760 6374 KRISTENSEN RASMNS DANGAARD 08:06:05:000 C 143 181.70 HORSENS, DANEMARK
761 6512 STESSENS DAVY 08:06:05:000 C 144 180.55 WESTERLO, BELGIQUE
762 1037 VAN BRAGT DANNY 08:06:11:900 D 323 11.50 ESSEN, BELGIQUE
763 3525 COSTABEBER LUIGI 08:06:17:000 E 234 77.05 WAREMME, Belgique
764 5591 BLANCO IGOR 08:06:19:000 C 145 179.40 ORDUNA VIZCAYA, ESPAGNE
765 1226 VAN DE CASTEELE CARL 08:06:19:700 D 324 11.50 SLEIDINGE, BELGIQUE
766 2616 MACHABERT DIDIER 08:06:26:000 E 235 75.90 SORBIERS, FRANCE
767 48 PINELLI ALESSANDRA 08:06:27:000 A 3 342.70 MODENA, ITALIE
768 47 NINZOLI PIERLUIGI 08:06:31:000 D 325 11.50 MODENA, ITALIE
771 3600 DE ROECK PETER 08:06:40:000 E 236 74.75 LANDEN, BELGIQUE
772 6407 DESOUTTER THIERRY 08:06:42:100 F 39 301.30 CHATENOY LE ROYAL, FRANCE
773 1494 CIVAL JEROEN 08:06:44:000 D 326 11.50 BREDA, Pays-Bas
774 8441 HAMMEN ADDO 08:06:48:000 D 327 11.50 EIDHOVEN, Pays-Bas
775 2939 HEIJLIGERS TON 08:06:49:900 E 237 73.60 SINT ANTHONIS, Pays-bas
776 1278 BALCAEN STEVEN 08:06:53:800 D 328 11.50 OUDENAARDE, BELGIQUE
777 610 WILLEMSENS LUC 08:06:56:000 E 238 72.45 ARENDONK, BELGIQUE
778 6417 KRAAIJEVELD ADRIAAN 08:07:02:000 C 146 178.25 LERDEN, Pays-Bas
779 1873 BLANCHE PHILIPPE 08:07:03:400 E 239 71.30 LA CIOTAT, FRANCE
780 3369 BOS MARCO 08:07:15:000 D 329 11.50 BOLSWARD, Pays-Bas
781 5721 FOURCADE JEAN NOËL 08:07:22:000 C 147 177.10 LATTES, FRANCE
782 4782 COET SYLVAIN 08:07:27:000 C 148 175.95 TOULON, FRANCE
783 2612 PRADIER PHILIPPE 08:07:31:000 D 330 11.50 SORBIERS, FRANCE
784 6676 DEWAELE BART 08:07:34:000 D 331 11.50 HERENT, BELGIQUE
785 4143 CATALAN GARCIA FELIPE 08:07:34:100 E 240 70.15 CASTELLON, ESPAGNE
786 4422 DUBUY JOHAN 08:07:48:000 C 149 174.80 LE MUY, FRANCE
787 3741 ALBRECHT FREDERIK 08:07:51:000 C 150 173.65 BUGGENHOUT, BELGIQUE
788 1086 MORIN ALAIN 08:08:02:000 E 241 69.00 TULLE, France
789 2731 LEYMAN ERIC 08:08:04:000 F 40 300.15 BRAKEL, BELGIQUE
790 2703 FERNANDEZ SALVADOR 08:08:07:000 C 151 172.50 HOLLENFELS, LUXEMBOURG
791 1999 PONSERRE SERGE 08:08:09:200 F 41 299.00 CHAPONNAY, FRANCE
792 2945 FAYOLLE JEAN-LOUP 08:08:09:200 E 242 67.85 ST DIDIER AU MONT D OR, FRANCE
793 2184 MCDERMOTT JOE 08:08:11:000 D 332 11.50 ILKLEY, Royaume-Uni
794 741 CUESTA HILARIO 08:08:14:000 D 333 11.50 MURVIEL LES MONTPELLIER, FRANCE
795 998 KEMPENEERS WIM 08:08:16:000 E 243 66.70 SINT TRUIDEN, Belgique
796 6090 JAMEAUX BERNARD 08:08:23:000 F 42 297.85 SCEY SUR SAONE, FRANCE
797 2004 LEEK HANS 08:08:32:000 E 244 65.55 ZUID SCHARWOUDE, Pays-Bas
799 3281 VAN DER BERG JACOB 08:08:38:000 E 245 64.40 WATERINGEN, Pays-Bas
800 879 ZARDIMI ADRIAMO 08:08:40:000 E 246 63.25 VEGRAR (VERONA), ITALIE
801 1534 MARLISA MARINO 08:08:45:000 D 334 11.50 WIJCHEN, Pays-Bas
802 311 MARLIER ALAIN 08:08:51:000 E 247 62.10 ST GENEST LERPT, FRANCE
803 3783 GENOCHIO FABRICE 08:08:59:000 D 335 11.50 LORRY MARDIGNY, FRANCE
804 4634 LEGROS ROLAND 08:09:00:000 E 248 60.95 GEMBLOUX, BELGIQUE
805 511 KLAASSEN ADRIE 08:09:04:000 D 336 11.50 DEURNE, Pays-Bas
806 3268 OLTHUIS ESTHER 08:09:04:000 A 4 341.55 DEVENTER, Pays-Bas
807 1291 KNIKKINK JEROEN 08:09:05:000 D 337 11.50 MAASTRICHT, Pays-Bas
808 2728 DE GROOTE STEFAAN 08:09:05:000 C 153 170.20 MERELBEKE, BELGIQUE
809 6299 PHANON JEROME 08:09:07:000 C 154 169.05 Saint Baudille et Pipet, France
810 725 REMI PIETERS 08:09:07:700 D 338 11.50 Hazebrouck, France
811 4684 MINOT ALEXANDRE 08:09:11:000 C 155 167.90 MONTAGNY LES BEAUNE, SUISSE
812 6485 VAN HULSEN DANNY 08:09:11:000 C 156 166.75 SCHIJNDEL, Pays-Bas
813 4070 TERRIERE JORNY 08:09:11:700 D 339 11.50 MESEN, BELGIQUE
814 5510 MROWCZYNSKI PIOTR 08:09:11:900 D 340 11.50 PRUSZKOW, POLOGNE
815 3133 KREGTING JACK 08:09:21:000 D 341 11.50 BEMMEL, Pays-Bas
816 763 RIJNDERS JEROEN 08:09:24:000 C 157 165.60 ANTWERPEN, BELGIQUE
817 1498 RUHE CHRIS 08:09:24:000 C 158 164.45 S-HERTOGENBOSCH, Pays-Bas
818 926 GROSEN OLE 08:09:32:000 E 249 59.80 ESBJERG, DANEMARK
819 6961 DIERCKX KOEN 08:09:34:000 C 159 163.30 HEULTJE, BELGIQUE
820 422 SCHAAPHERDER RENE 08:09:39:000 E 250 58.65 BERGEN, Pays-Bas
821 1918 SAVAZZI OTTORINO 08:09:48:000 F 43 296.70 BOLZANO, ITALIE
822 6515 VAN DE BELT GERVIN 08:09:50:000 C 160 162.15 HASSELT, Pays-Bas
823 8060 NOLIERE ANTHONY 08:09:53:000 C 161 161.00 SAINTE SABINO, FRANCE
824 8817 VANDEKERCKHOVE NICO 08:10:04:000 D 342 11.50 Ingelmunster, Belgique
825 5955 HATILIP WILLIAM 08:10:05:500 D 343 11.50 Toulouse, France
826 3613 MILLAN ARNAU FERNANDO 08:10:07:000 E 251 57.50 CASTELLON DE LA PLANA, ESPAGNE
827 101 RUSSIAS JACQUES 08:10:08:000 G 6 339.25 AMBERT, France
828 4001 BEUKERS MAARTEN 08:10:10:000 F 44 295.55 LITH, Pays-Bas
829 4399 GEER DREW 08:10:10:000 E 252 56.35 BOULDER CO, 36
830 2237 LISBYGD DENNIS 08:10:12:000 C 162 159.85 SORO, DANEMARK
831 1939 VAN RHYN RUDOLF 08:10:25:000 E 253 55.20 ST MARCEL D URF_, FRANCE
832 8931 BLATTER FREDERIC 08:10:28:000 E 254 54.05 ARDON, SUISSE
833 4433 LONFAT ROMAIN 08:10:29:600 C 163 158.70 VEYRAS, Suisse
834 1058 JANSEN MARCO 08:10:32:000 C 164 157.55 AMSTERDAM, Pays-Bas
835 165 ECHALLIER FABRICE 08:10:33:600 D 344 11.50 LAMURE SUR AZERGUES, FRANCE
836 1864 FRIEND RICHARD 08:10:42:000 D 345 11.50 BECKENHAM, Royaume-Uni
837 3340 LETEN TONY 08:10:43:300 D 346 11.50 HELCHTEREN, Belgique
838 8854 ANNEN PATRICK 08:10:43:400 D 347 11.50 VEVEY, SUISSE
839 6393 SCHAAP ANDRE 08:10:46:000 D 348 11.50 , Pays-bas
840 5448 TOGNI ANDREA 08:10:50:000 D 349 11.50 PALADINA (BG), ITALIE
841 1620 HOPSTAKEN MARC 08:10:55:000 D 350 11.50 HOOGSTRATEN, BELGIQUE
842 6651 VAN ONGEVAL MATTHIAS 08:10:55:000 C 165 156.40 NAZARETH, BELGIQUE
843 676 CHICHOUX DIDIER 08:10:58:000 E 255 52.90 MONTAGNAT, FRANCE
844 399 BECKER CLEMENS 08:11:01:000 D 351 11.50 BERLIN, ALLEMAGNE
845 6665 RAMMELOO ROMEO 08:11:08:000 D 352 11.50 OOSTAKKER, BELGIQUE
846 1352 VERON PIERRE 08:11:12:000 E 256 51.75 QUIMPER, FRANCE
847 6948 NEUTEBOOM HANS 08:11:22:000 E 257 50.60 LEIDERDORP, Pays-Bas
848 3751 LATORRE ROMAN ROQUE 08:11:25:000 E 258 49.45 UBEDA (JAEN), ESPAGNE
849 5617 KEIGHTLEY JOHN 08:11:25:900 E 259 48.30 CAERNARFON, Royaume-Uni
850 1045 BLOTE WILLEM 08:11:33:000 D 353 11.50 LEIDEN, Pays-Bas
851 5251 HANSEN HANS CHR 08:11:37:000 D 354 11.50 LOESNING, DANEMARK
852 3263 DOCLO JAN 08:11:41:000 E 260 47.15 KEERBEREEN, BELGIQUE
853 2745 NOVELLI ANDREA 08:11:44:400 E 261 46.00 SAN MAURO PASCOLI, ITALIE
854 872 BOYTHIAS GREGORY 08:11:47:000 D 355 11.50 TOULON, FRANCE
855 6246 WOUTERS CYRIEL 08:11:51:000 F 45 294.40 DIEST, BELGIQUE
856 705 KNIGHT GLYN 08:11:59:000 E 262 44.85 LONDON, Royaume-Uni
857 6591 GUILLENEA DENDARIETA JUAN ANTONIO 08:12:01:200 E 263 43.70 BERA, ESPAGNE
858 1856 PETIT JEAN PIERRE 08:12:04:400 E 264 42.55 MESSEIN, FRANCE
859 1458 SEINSTRA LAURA 08:12:05:600 A 5 340.40 DEN HAAG, Pays-Bas
860 8944 PESCHIER CHRISTHOPHE 08:12:16:000 E 265 41.40 TASSIN LA DEMI LUNE, FRANCE
861 1839 DESAIR DANNY 08:12:17:300 F 46 293.25 WERCHTER, BELGIQUE
862 2002 LOPEZ JEAN CHRISTOPHE 08:12:19:000 E 266 40.25 BRIVES, FRANCE
863 1403 BONSTRA PIM 08:12:20:600 D 356 11.50 DUIVENDRECHT, Pays-Bas
864 54 MORY SILVERE 08:12:35:000 E 267 39.10 SAINT MARTIN D HERES, France
865 992 RASMUSSEN KENNETH 08:12:43:000 C 166 155.25 FREDERIKSBERG, DANEMARK
866 600 DE VRIES MARTIN 08:12:44:000 E 268 37.95 LANDSMEER, Pays-Bas
867 3718 DUMONT FRANCK 08:12:45:200 D 357 11.50 LA FERTE ALAIS, France
868 1821 COLLINS IAN 08:12:47:000 D 358 11.50 THONEX/GENEVE, SUISSE
869 9022 ERNSTER MARC 08:12:49:000 C 167 154.10 PEPPANGE, 23
870 9023 PORRINI ATTILIO 08:12:49:000 C 168 152.95 DUDELANGE, 23
871 445 VAN LEEUWEN MARCO 08:13:03:000 E 269 36.80 HELLEVOETSLUIS, Pays-Bas
872 5354 PEROUSE DE MONTCLOS FABIEN 08:13:06:900 C 169 151.80 LYON, FRANCE
873 6516 DAMS MARNIX 08:13:12:000 D 359 11.50 TESSENDERLO, BELGIQUE
874 5631 RAINCOURT PHILIPPE 08:13:13:300 C 170 150.65 CHEVIGNY ST SAUVEUR, FRANCE
875 3440 MAGGIONI ROBERTO 08:13:18:000 D 360 11.50 MALGRATE LC, ITALIE
876 2600 TIMMERMANS LUC 08:13:20:000 E 270 35.65 ARENDONK, BELGIQUE
877 1855 BOURDAIS CHRISTOPHE 08:13:22:300 D 361 11.50 BEAUMONTEL, France
878 4179 BEULLENS DIRK 08:13:22:900 D 362 11.50 herent, Belgique
879 3776 PEREZ GRAMAJE JOSE VICENTE 08:13:23:000 C 171 149.50 CANALS VALENCIA, ESPAGNE
880 1055 DATSON EDWIN 08:13:31:000 D 363 11.50 LONDRES, Royaume-Uni
881 3692 DE TAEY EDWIG 08:13:38:000 D 364 11.50 HAASDONK, BELGIQUE
882 5305 VALETTE NORBERT 08:13:38:100 E 271 34.50 SASSENAGE, FRANCE
883 5370 BLOM STEFAN 08:13:39:500 C 172 148.35 SOEST, Pays-Bas
884 6151 HAGEN MARIO 08:13:55:000 E 272 33.35 S GRAVENLAND, Pays-Bas
885 710 LEHERLE VINCENT 08:13:56:000 D 365 11.50 ARCEY, FRANCE
886 3656 BROUNS MAURICE 08:13:58:000 D 366 11.50 NEDERWEERT, Pays-Bas
887 4374 DELAGRANGE ANTOINE 08:13:58:000 F 47 292.10 LE CANNET, France
888 894 FILA ROBERTO 08:14:12:000 F 48 290.95 VARALLOSESIA (VC), ITALIE
889 811 AIME TIZIANO 08:14:18:000 C 173 147.20 Boves, Italie
890 5353 MOULIN PAUL 08:14:21:200 F 49 289.80 LOCRONAN, FRANCE
891 366 TOURNIER DENIS 08:14:28:000 E 273 32.20 ARLAY, FRANCE
892 3736 CALDERS DIEDERIK 08:14:33:000 E 274 31.05 LONDERZEEL, BELGIQUE
893 3228 VAN DEN DEIJSSEL DANNY 08:14:35:000 C 174 146.05 BAARN, Pays-Bas
894 3646 FERNANDEZ DANIEL 08:14:44:000 E 275 29.90 SERRIERES, FRANCE
895 8019 VAN GILS KOEN 08:14:44:000 C 175 144.90 Essen, Belgique
896 2329 HOOGENES ERIC 08:14:48:000 E 276 28.75 BERGSCHENHOEK, Pays-Bas
897 3745 MATHIEU EDWARD 08:14:48:000 D 367 11.50 AMSTERDAM, Pays-Bas
898 5515 NIELSEN OLE HYE 08:14:49:700 E 277 27.60 ODENSE, DANEMARK
899 1042 WIJNENDAELE JOHAN 08:14:56:000 E 278 26.45 BORSBEKE, BELGIQUE
900 1285 VAN DER BEKEN GEERT 08:14:56:300 D 368 11.50 OUDEMAARDE, BELGIQUE
901 2519 NIJHOF SANDER 08:14:56:400 C 176 143.75 APELDOORN, Pays-Bas
902 3732 HESS JOACHIM 08:14:57:000 C 177 142.60 GRUB SG, SUISSE
903 6940 CHAPEL DANIEL 08:14:59:000 F 50 288.65 SAUSSINES, FRANCE
904 546 VERRESEN PATRICK 08:15:06:000 E 279 25.30 STABROEK, BELGIQUE
905 658 DILLO PETER JOHAN 08:15:08:000 D 369 11.50 SCHAGEN, Pays-Bas
906 5452 PERNICENI GIANCARLO 08:15:10:100 E 280 24.15 MAPELLO (BG), ITALIE
907 4869 DIETEREN LUC 08:15:10:500 E 281 23.00 BENSHEIM, ALLEMAGNE
908 1024 VERHEYEN JEAN 08:15:12:000 D 370 11.50 KEERBEREEN, BELGIQUE
909 2709 BOGDAJEWICZ GRZEGORZ 08:15:15:000 D 371 11.50 OSTROW WIELKOPOLSKI, 28
910 978 TIMMERMANS WIM 08:15:15:200 E 282 21.85 HOUTHALEN-HELCHTEREN, Belgique
911 5910 HUON JEROME 08:15:16:000 C 178 141.45 MONTAILLE, FRANCE
912 2077 VERGNAUD BERTRAND 08:15:18:000 E 283 20.70 BETHEMONT LA FORET, FRANCE
913 6335 ROOVERS JOHN 08:15:25:000 E 284 19.55 ZUNDERT, Pays-Bas
914 2749 VAN DEN BOOMEN FRANS 08:15:31:000 C 179 140.30 DE RIPS, Pays-bas
915 6379 MARTINEZ GOMEZ OSCAR 08:15:37:000 C 180 139.15 CASTELLON, ESPAGNE
916 5410 SONZOGNI THIERRY 08:15:39:000 E 285 18.40 CHEN0VE, FRANCE
917 967 OPRINS HENNIE 08:15:51:000 E 286 17.25 POPPEL, BELGIQUE
918 5084 LUNENBORG HENK 08:15:52:000 E 287 16.10 Hoogeveen, Pays-Bas
919 1995 DE GEYTER KOEN 08:15:54:400 D 372 11.50 GENT, BELGIQUE
920 1673 VAN NIEUWENHOVEN MARTIN 08:15:54:800 E 288 14.95 BUGGENUM, Pays-Bas
921 708 PEPINO SAMUEL 08:15:55:500 D 373 11.50 SARCEY, France
922 4343 SELLIER MANUEL 08:16:02:000 C 181 138.00 ST MARTIN D'HERES, FRANCE
923 5520 WIENSKOWSKI TOMASZ 08:16:07:000 C 182 136.85 GDANSK, 28
924 4892 DELATTRE LUC 08:16:07:600 D 374 11.50 DILBEEK, BELGIQUE
925 1908 FONS CARSTEN 08:16:10:300 E 289 13.80 ESBJERG, Danemark
926 8044 O SHEA EOGHAN 08:16:23:000 E 290 12.65 CORK, IRLANDE
927 3972 BAELEN FABRICE 08:16:27:000 E 291 11.50 PEGOMAS, FRANCE
928 2864 WEIDEMANN MADS 08:16:31:000 C 183 135.70 SOROE, DANEMARK
929 5772 GASCON GOMEZ JUAN ALBERTO 08:16:33:000 E 292 11.50 VALENCIA, ESPAGNE
930 431 VERBOVEN NICO 08:16:39:000 D 375 11.50 BOUWEL, BELGIQUE
931 1621 WOUTERS WERNER 08:16:40:000 D 376 11.50 HOOGSTRATEN, BELGIQUE
932 3888 ANGST JEAN MARC 08:16:42:400 E 293 11.50 ALBE, France
933 8885 VERMOT DESROCHES BRUNO 08:16:43:600 E 294 11.50 NAISEY LES GRANGES, FRANCE
934 4480 TIMMERMAN MARC 08:16:44:000 E 295 11.50 BEAUVECHAIN, BELGIQUE
935 874 TROY MICHEL 08:16:47:000 E 296 11.50 MONTRY, FRANCE
936 6979 SCHUERMANS JAN 08:16:48:000 E 297 11.50 MERKSPLAS, BELGIQUE
937 5713 CHARLES CEDRIC 08:16:54:000 D 377 11.50 GUILHERAND GRANGES, FRANCE
938 4175 RIOU MICHEL 08:16:54:600 F 51 287.50 UROU ET CRENNES, FRANCE
939 3794 VAN WAYENBERGHE FREDDY 08:16:55:700 F 52 286.35 GERAARDSBERGEN, BELGIQUE
940 6226 HERTOGHS ROEL 08:16:55:700 C 184 134.55 KESSEL LOUVIN, BELGIQUE
941 3706 PARRINELLO ALBERTO 08:17:04:000 D 378 11.50 CASTELLARANO (RE), ITALIE
942 659 ADRIAENS ETIENNE 08:17:05:000 F 53 285.20 DENDERHOUTEM, BELGIQUE
943 1622 DE SCHRIJVER PAUL 08:17:05:000 E 298 11.50 KERKSEN, BELGIQUE
944 5267 NIELSEN MICHAEL 08:17:05:100 D 379 11.50 TAASTRUP, DANEMARK
945 3629 GAY BERTRAND 08:17:05:200 E 299 11.50 VILLEVOCANCE, FRANCE
946 3987 DE VOLDER LUC 08:17:08:000 E 300 11.50 ZULTE, BELGIQUE
947 2700 STASIAK PAWEL 08:17:11:000 C 185 133.40 OSTROW WIELKOPOLSKI, POLOGNE
948 2017 LE GOUALLEC CHRISTOPHE 08:17:13:900 D 380 11.50 ROSPORDEN, FRANCE
949 3712 VOUILLAMOZ JOBY 08:17:14:600 D 381 11.50 VEX, Suisse
950 2410 VAN LAARHOVEN MAURICE 08:17:15:000 D 382 11.50 KAATSHEUVEL, Pays-Bas
951 5015 RAMSAY ALLAN 08:17:15:000 F 54 284.05 RADCLIFFE MANCHESTER, Royaume-Uni
952 654 MOGENSEN ERLING 08:17:16:000 E 301 11.50 ISHøJ, DANEMARK
953 5092 ROERDINK MELVYN 08:17:16:000 C 186 132.25 AMSTERDAM, Pays-Bas
954 5738 VARESANO ALDO 08:17:16:000 F 55 282.90 FONTAINE, FRANCE
955 5234 VANDECAETSBEEK EDDY 08:17:18:000 E 302 11.50 HOELSELT, BELGIQUE
956 3754 GAMEZ MOLINA ANTONIO JOSE 08:17:30:000 D 383 11.50 UBEDA (JAEN), ESPAGNE
957 701 TELEN WALTER 08:17:34:200 D 384 11.50 MAASMECHELEN, BELGIQUE
958 2033 BAYEN MARC 08:17:34:300 E 303 11.50 MAASMECHELEN, BELGIQUE
959 1223 SCHALK WIM 08:17:41:000 E 304 11.50 MEER, BELGIQUE
960 1112 VAN ALFEN RENE 08:17:45:000 D 385 11.50 DELFT, Pays-Bas
961 3492 GIACOMELLI STEFANO 08:17:48:500 D 386 11.50 PASIAN DI PRATO UD, ITALIE
962 6319 VAN OOSTENDE JORG 08:17:50:000 C 187 131.10 SOEST, Pays-Bas
963 1123 ANDRIESSEN PAUL 08:17:59:000 E 305 11.50 AMSTELVEEN, Pays-Bas
964 2398 VAN KUIJK ANDRE 08:18:01:500 F 56 281.75 GEERTRUIDENBERG, Pays-Bas
965 2970 PEDERSEN RENE 08:18:05:000 D 387 11.50 HERNING, DANEMARK
966 579 SCHALKOORT MIKE 08:18:08:000 D 388 11.50 ZOETERMEER, Pays-Bas
967 2255 VAN GUCHT MARIO 08:18:10:100 D 389 11.50 LEBBEKE, BELGIQUE
968 614 ROOSE YANNIK 08:18:17:000 D 390 11.50 BRUXELLES, Belgique
969 698 KEPPENS JORAN 08:18:20:000 D 391 11.50 VLIERZELE, BELGIQUE
970 5625 PEREZ CABRERA JOSE 08:18:21:000 F 57 280.60 VILLENA, ESPAGNE
971 4714 ALMEIDA ROGER 08:18:31:000 E 306 11.50 YSSAC LA TOURETTE, FRANCE
972 799 DUMENIL PHILIPPE 08:18:35:000 E 307 11.50 VENISSIEUX, FRANCE
973 3639 DECREUSE BRUNO 08:18:37:000 D 392 11.50 VENELLES, FRANCE
974 435 VERDUIJN JAN 08:18:42:000 F 58 279.45 ZOETERMEER, Pays-Bas
975 629 VAN CAPPELLE FRANS 08:19:01:000 F 59 278.30 SPAARNDAM, Pays-Bas
976 3713 NIKLASSON JOHN 08:19:12:000 D 393 11.50 AARHUS, DANEMARK
977 464 KIEWIET HENK JAN 08:19:15:300 D 394 11.50 UTRECHT, Pays-Bas
978 3937 SMITH MATTHEW 08:19:15:800 C 188 129.95 PLUMSTEAD LONDON, Royaume-Uni
979 665 DE PETTER GEERT 08:19:19:000 E 308 11.50 BRAKEL, BELGIQUE
980 4305 LAURIN BRUNO 08:19:21:200 E 309 11.50 MORTEAU, FRANCE
981 1184 WELLEMANS JAN 08:19:22:800 D 395 11.50 LENNIK, BELGIQUE
982 3993 DEVYNCK FREDERIK 08:19:28:000 C 189 128.80 KORTRIJK, BELGIQUE
983 9019 GUERIN J.PIERRE 08:19:30:600 F 60 277.15 GRENOBLE, FRANCE
984 4529 GEISE NIELS 08:19:31:900 D 396 11.50 AMSTERDAM, Pays-Bas
985 878 CRUTTO ALBERTO 08:19:34:400 E 310 11.50 IVREA, ITALIE
986 4938 MALISOUX LAURENT 08:19:35:000 C 190 127.65 VIUZ EN SALLAZ, FRANCE
987 2539 GORIS EDDY 08:19:42:000 E 311 11.50 ARENDONK, BELGIQUE
988 3881 DIVERS JON 08:19:51:000 D 397 11.50 BRENTFORD, Royaume-Uni
989 1689 HAESEVOETS PHILIP 08:19:51:800 E 312 11.50 ALKEN, BELGIQUE
990 3682 LANGEVELD MICHEL 08:19:56:000 C 191 126.50 NOORDWIJK, Pays-Bas
991 6576 COLSON EMMA 08:19:56:000 AB 3 342.70 COLLINGWOOD, AUSTRALIE
992 5590 MELLADO JAVIER 08:20:00:000 C 192 125.35 ORDUNA VIZCAYA, ESPAGNE
993 5115 ROTH FRANCOIS 08:20:02:400 D 398 11.50 RUESSELHEIM, ALLEMAGNE
994 1625 HANSSENS JOHAN 08:20:03:400 D 399 11.50 KERKSEN, BELGIQUE
995 2396 PRINSEN AD 08:20:08:600 F 61 276.00 GEERTRUIDENBERG, Pays-Bas
996 766 DE CORTE VINCENT 08:20:14:000 C 193 124.20 LEUVEN, BELGIQUE
997 5947 BARILARI LUIGI 08:20:22:000 F 62 274.85 FORLI, ITALIE
998 4890 PUIGVENDRELLO EDUARD 08:20:27:000 D 400 11.50 VIC, ESPAGNE
999 873 CAVALCA STEFANO 08:20:28:000 D 401 11.50 PISA, ITALIE
1000 5857 DUBRAY DIMITRI 08:20:28:000 C 194 123.05 SAVIGNY SUR ORGE, FRANCE
1001 6104 MONLEON ESTEBANELL OSCAR 08:20:28:000 D 402 11.50 CALDES DE MONTBUI, ESPAGNE
1002 4376 STALDER GILLES 08:20:30:000 E 313 11.50 MORTEAU, France
1003 1630 KOENEN FRED 08:20:31:000 C 195 121.90 DEN HELDER, Pays-Bas
1004 206 SCHMIDT CHRIS 08:20:37:000 D 403 11.50 NIJKERKERVEEN, Pays-bas
1005 1247 BELCHER WILLIAM 08:20:42:000 E 314 11.50 HASLINGDEN LANCASHIRE, Royaume-Uni
1006 3524 MASSARDIER PATRICK 08:20:43:600 F 63 273.70 ST CHAMOND, FRANCE
1007 2253 VERHULST FRANKY 08:20:46:000 D 404 11.50 BAASRODE, BELGIQUE
1008 5658 BERNDT RALF 08:20:49:300 E 315 11.50 KOLN, ALLEMAGNE
1009 1945 BORCY DIDIER 08:20:51:000 E 316 11.50 SAINT HUBERT, BELGIQUE
1010 6689 KLEVERINGA MISCHA 08:20:54:200 D 405 11.50 ASSEN, Pays-Bas
1011 5693 DUQUESNE DENIS 08:21:02:000 D 406 11.50 HINGES, FRANCE
1012 5891 CANTE BRUNO 08:21:02:000 D 407 11.50 VERTAIZON, FRANCE
1013 4031 MARTINEZ FRANCK 08:21:08:000 E 317 11.50 ST CHRISTOL LES ALES, FRANCE
1014 1922 INDLEKOFER MICHAEL 08:21:09:000 E 318 11.50 KANDERN, ALLEMAGNE
1015 1962 BENEDIK JEAN PHILIPPE 08:21:11:000 C 196 120.75 SIERCK LES BAINS, FRANCE
1016 8835 VANDECAUTER HENDRIK 08:21:12:000 D 408 11.50 ZINGEM, BELGIQUE
1017 1229 DE TIER ERIC 08:21:16:000 D 409 11.50 GAVERE, BELGIQUE
1018 796 VAN ZOMEREN DICK 08:21:24:000 E 319 11.50 LEERSUM, Pays-Bas
1019 613 GROEN BOB 08:21:26:200 F 64 272.55 GOUDA, Pays-bas
1020 1692 BROUWERS JOS 08:21:40:000 F 65 271.40 VENLO, Pays-Bas
1021 4323 LIMOUSIN FREDERIC 08:21:40:000 C 197 119.60 CALAIS, FRANCE
1022 1315 VANNAY ROBERT 08:21:47:000 D 410 11.50 JONGNY, SUISSE
1023 3554 KOEDIJKER JOHAN 08:21:48:500 C 198 118.45 IJMUIDEN, Pays-Bas
1024 5093 VERSPUY MICHIEL 08:21:48:500 C 199 117.30 AMSTERDAM, Pays-Bas
1025 5035 VAN GORP KAREL 08:21:49:000 E 320 11.50 RIJKEVORSEL, BELGIQUE
1026 6607 EIKELENBOOM SIMON 08:21:50:000 E 321 11.50 KOUDEKERK AAN DEN RIJN, Pays-Bas
1027 4096 LACOCHE JONATHAN 08:21:54:000 C 200 116.15 VERSAILLES, FRANCE
1028 5603 GONZALO ALVARO 08:21:54:700 C 201 115.00 SONDIKA, ESPAGNE
1029 1205 ROBERT GILLES 08:21:57:300 C 202 113.85 ST JUST MALMONT, FRANCE
1030 1201 VANCAUDENBERG ALAIN 08:21:58:000 E 322 11.50 HOEILAART, BELGIQUE
1031 4741 BUSIGNANI CLAUDIO 08:22:04:000 F 66 270.25 CESENA FC, ITALIE
1032 986 FYRSTMAN MICHAEL 08:22:05:000 E 323 11.50 NYBORG NORDENHUSE, DANEMARK
1033 88 PASCAL ERNEST 08:22:06:000 E 324 11.50 ANTIBES, FRANCE
1034 2415 VAN DIJK ERIK JAN 08:22:08:000 D 411 11.50 S-HERTOGENBOSCH, Pays-Bas
1035 2146 SKOGMANN FRODE 08:22:09:000 D 412 11.50 TISTEDAL, NORVEGE
1036 5109 TRINEL REGIS 08:22:11:000 E 325 11.50 BETHUNE, France
1037 1943 CLINQUART RUDY 08:22:15:000 D 413 11.50 BRAINE LE COMTE, BELGIQUE
1038 8891 LAMOTHE MARC 08:22:16:000 C 203 112.70 ST MARTIN D'URIAGE, FRANCE
1039 1081 ANDERSEN BIRGER 08:22:21:100 E 326 11.50 VANLOSE, DANEMARK
1040 1019 ATKINS GAVIN 08:22:21:800 D 414 11.50 BERKHAMSTED HERTS, Royaume-Uni
1041 1858 AUBRIOT MICHEL 08:22:22:000 E 327 11.50 COURCELLES CHAUSSY, France
1042 746 TURLAN GERARD 08:22:26:000 F 67 269.10 ESSERT, FRANCE
1043 2632 DEJNEK EUGENIUSZ 08:22:36:000 E 328 11.50 SWIDNICA, 28
1044 6308 BARET PAUL 08:22:47:000 F 68 267.95 PIERRE CHATEL, FRANCE
1045 1496 GOMMERS JOHAN 08:22:47:900 E 329 11.50 WERNHOUT, Pays-Bas
1046 5949 GAROIA MARCELLO 08:22:50:000 E 330 11.50 FORLI, ITALIE
1047 4246 VAN CAUTEREN STEIN 08:22:50:600 D 415 11.50 ZELE, BELGIQUE
1048 5387 ROLLMANN PETER 08:22:55:000 E 331 11.50 ADENAU, Allemagne
1049 633 WADDAMS MATTHEW 08:22:55:700 E 332 11.50 MINEHEAD, Royaume-Uni
1050 4603 POURBAIX VIC 08:22:56:000 D 416 11.50 WUUSTWEZEL, BELGIQUE
1051 3940 DESMET PASCAL 08:22:59:000 C 204 111.55 kortrijk, Belgique
1052 1811 LECHINE STEPHANE 08:23:01:000 D 417 11.50 STRASBOURG, FRANCE
1053 4987 MARCONNET PATRICE 08:23:01:000 D 418 11.50 LYON, FRANCE
1054 4636 FAVRE-VERAND JOEL 08:23:02:500 D 419 11.50 APPRIEU, FRANCE
1055 2659 SANDER UWE 08:23:03:000 D 420 11.50 ROSENKOPF, ALLEMAGNE
1056 5335 VERRIJT ERIK 08:23:03:000 C 205 110.40 HEEZE, Pays-Bas
1057 2957 BRONS MARALD 08:23:08:000 D 421 11.50 ALPERDOORN, Pays-Bas
1058 402 COPPENS PHILIPPE 08:23:13:000 E 333 11.50 HARELBEKE, BELGIQUE
1059 401 TACK JOHAN 08:23:14:900 E 334 11.50 HEULE, BELGIQUE
1060 4472 VIVIEN DAVID 08:23:18:000 D 422 11.50 COSNE, FRANCE
1061 4701 VRINS RENE 08:23:19:000 E 335 11.50 MADE, Pays-Bas
1062 4646 MEEX STEVEN 08:23:20:700 C 206 109.25 MAASMECHELEN, BELGIQUE
1063 5447 RIZZI FULVIO 08:23:22:600 F 69 266.80 ALZANO LOMB (BG), ITALIE
1064 1206 ANDERSEN STIG 08:23:42:900 D 423 11.50 SLAGELSE, Danemark
1065 4934 CERCLIER THIERRY 08:23:44:000 E 336 11.50 MARSEILLE, FRANCE
1066 2156 DE NEVE ERIC 08:23:46:000 E 337 11.50 NEDERHASSELT, BELGIQUE
1067 2323 LANGEZAAL JOHN 08:23:51:000 E 338 11.50 VOORSCHOTEN, Pays-Bas
1068 4976 DIJKSTRA HAROLD 08:24:02:000 D 424 11.50 GIETEN, Pays-Bas
1069 1905 CARO NICOLAS 08:24:15:000 E 339 11.50 BURLATS, FRANCE
1070 2068 DE TEMMERMANN DANNY 08:24:21:000 D 425 11.50 BRAKEL, BELGIQUE
1071 2976 LODA LUIGI 08:24:21:000 F 70 265.65 PALAZZOLO SULL OGLIO, ITALIE
1072 9014 GIALLARA PIERRE ALAIN 08:24:21:000 D 426 11.50 SAN MAURO, ITALIE
1073 2032 CABOS MICHEL 08:24:24:800 E 340 11.50 ST MAXIMIN, FRANCE
1074 2072 DE BOECK PETER 08:24:26:000 D 427 11.50 GERAADSBERGEN, BELGIQUE
1075 3768 VAN GESTEL ROB 08:24:26:000 D 428 11.50 DIESSEN, Pays-Bas
1076 312 LOUISON JEAN FRANCOIS 08:24:30:000 F 71 264.50 PLANFOY, FRANCE
1077 1453 PESCHIER HANS 08:24:34:700 D 429 11.50 NOORDWIJKERHOUT, Pays-Bas
1078 5069 BOOM DAVID 08:24:35:000 C 207 108.10 DEN HELDER, Pays-Bas
1079 486 SEVENS ERIK 08:24:35:700 D 430 11.50 DIESSEN, Pays-Bas
1080 4958 CARPENTIER CEDRIC 08:24:42:000 D 431 11.50 LEUVRIGNY, FRANCE
1081 5095 GELUWIE VINCENT 08:24:49:000 C 208 106.95 HUIZEN, Pays-Bas
1082 1073 NIRREGAARD TORBEN 08:24:52:000 E 341 11.50 BOGENSE, DANEMARK
1083 9005 PARTLAND JP 08:24:54:000 D 432 11.50 NEW YORK, 36
1084 2021 DE JAEGHER FREDERIC 08:24:57:000 D 433 11.50 LANDEGEM, BELGIQUE
1085 3183 BAARS ROB 08:25:00:000 D 434 11.50 GIESBEEK, Pays-Bas
1086 6145 TORRES JOSEP 08:25:00:500 E 342 11.50 TERRASSA, ESPAGNE
1087 2256 BUGGENHOUT ALAIN 08:25:04:000 D 435 11.50 LOKEREN, BELGIQUE
1088 4296 STEVENS GERT 08:25:10:000 E 343 11.50 SINT GILLIS WAAS, BELGIQUE
1089 2567 SPRUIT MACHIEL 08:25:15:800 D 436 11.50 WIJK BIJ DUURSTEDE, Pays-Bas
1090 5219 MOUTOUEIG STEPHANE 08:25:22:000 D 437 11.50 SCHWEIGHOUSE SUR MODER, FRANCE
1091 957 PRINS MARTIJN 08:25:24:000 D 438 11.50 UTRECHT, Pays-bas
1092 447 BORSBOOM PATRICK 08:25:34:000 D 439 11.50 HELLEVOETSLUIS, Pays-Bas
1093 1321 VIAL THOMAS 08:25:47:000 E 344 11.50 GRASSE, FRANCE
1094 3809 GYSELINCK EDDY 08:25:47:000 D 440 11.50 OUDENAARDE, BELGIQUE
1095 8648 LATORRE SEGARRA DAVID 08:25:52:000 D 441 11.50 MASQUERA -BARCELONA, ESPAGNE
1096 8473 INGLIS ANDREW 08:25:53:000 C 209 105.80 BRIGHTON MA, ETATS UNIS
1097 2521 NIJHOF GERT 08:25:56:600 F 72 263.35 APELDOORN, Pays-Bas
1098 751 VANSTEENVOORT WIM 08:26:03:000 D 442 11.50 Tienen, Belgique
1099 1570 SCHOKKER ROELOF 08:26:03:000 D 443 11.50 LEEUWORDEN, Pays-Bas
1100 6620 OSSIEUR MICHAEL 08:26:04:400 C 210 104.65 VOSSELARE, Belgique
1101 4325 DOVERI CRISTIANO 08:26:06:900 D 444 11.50 SELVATELLE, ITALIE
1102 2908 DE HAAS BART 08:26:07:000 D 445 11.50 DEN HAAG, Pays-Bas
1103 3906 VAN DUIJVENBODE TON 08:26:08:000 F 73 262.20 NOORDWIJK, Pays-Bas
1104 5188 WITTER PETER 08:26:11:900 C 211 103.50 , Pays-Bas
1106 5589 MAGGUILLI JULIEN 08:26:15:000 C 212 102.35 ECHIROLLES, FRANCE
1107 5141 BERQUEZ FREDERIC 08:26:16:100 D 446 11.50 bois guillaume, France
1108 979 VAN DER KRUIT ERIK 08:26:25:000 D 447 11.50 HOORN, Pays-Bas
1109 3960 CORDIER VINCENT 08:26:25:800 D 448 11.50 SAINT GENIS LES OLIERES, FRANCE
1110 6419 HENTIC JEAN RENE 08:26:26:000 D 449 11.50 PARIS, FRANCE
1112 989 VAN RENTERGEM ALAIN 08:26:34:000 D 450 11.50 DESTELBERGEN, BELGIQUE
1113 919 MUNOZ TAMARIT AMADEO 08:26:35:200 D 451 11.50 PUZOL, ESPAGNE
1114 539 BLAUW DURK 08:26:39:000 C 213 101.20 DEINUM, Pays-Bas
1115 541 KUIPHOF YTZEN 08:26:39:000 E 345 11.50 DEINUM, Pays-Bas
1116 2426 HUBERS HENRY 08:26:41:000 E 346 11.50 VINKEL, Pays-Bas
1117 4827 MIQUEL TARRAGO XAVIER 08:26:41:000 C 214 100.05 , ESPAGNE
1118 5303 COULAUD BRUNO 08:26:41:000 D 452 11.50 ARDOIX, FRANCE
1119 364 MOTTA ROBERTO 08:26:41:400 E 347 11.50 LISSONE, ITALIE
1120 3744 COURT CLAUDE 08:26:42:000 E 348 11.50 MOZAC, FRANCE
1121 844 Daniele Monaldini 08:26:42:500 E 349 11.50 Rimini, ITALIE
1122 3775 KAASENBROOD REMO 08:26:44:000 C 215 98.90 SANTPOORT-NOORD, Pays-Bas
1123 5172 VAN HOUTEN LEO 08:26:44:000 D 453 11.50 LANAKEN, BELGIQUE
1124 3200 WELHUIS HANS 08:26:46:000 E 350 11.50 DE LUTTE, Pays-Bas
1125 4321 RAVIER MICHEL 08:26:46:000 D 454 11.50 LONS LE SAUNIER, FRANCE
1126 587 VAN DER WERF TEUNIS 08:26:49:500 E 351 11.50 NUMANSDORP, Pays-Bas
1127 6282 JANOT PIERRE 08:26:52:000 D 455 11.50 GRENOBLE, FRANCE
1128 6181 NIELSEN JESPER 08:26:55:600 D 456 11.50 S, DANEMARK
1129 586 VAN NUNEN BERTIL 08:26:57:000 E 352 11.50 HELLEVOETSLUIS, Pays-Bas
1130 2858 VANSANTVOORT JEAN-MARIE 08:26:58:000 F 74 261.05 XHENDREMAEL, BELGIQUE
1131 1254 PARKER IAN 08:27:07:000 D 457 11.50 LEICESTERSHIRE, Royaume-Uni
1132 3826 BENTIVEGNA DIDIER 08:27:08:000 E 353 11.50 CASTELNOVO SOTIO, FRANCE
1133 4516 DANIS PASCAL 08:27:14:000 F 75 259.90 MOUSSAC, FRANCE
1134 3151 DE PRUYSSENAERE ROBIN 08:27:16:000 C 216 97.75 LEUSDEN, Pays-Bas
1135 3427 GIUNTA ANGELO 08:27:21:000 F 76 258.75 CAMAIORE LU, ITALIE
1137 5866 LAURY CHRISTOPHE 08:27:25:200 D 458 11.50 SAUBIGNY SUR CLARIS, FRANCE
1138 1341 NOLAN DAVE 08:27:35:000 E 354 11.50 MORCHARD BISHOP, Royaume-Uni
1139 8881 FROMENT LUDOVIC 08:27:36:000 D 459 11.50 Moingt, France
1140 1947 VAN RIJMENAM ROB 08:27:36:600 E 355 11.50 BREDA, Pays-Bas
1141 2619 FORESTIER HERVé 08:27:37:200 E 356 11.50 SORBIERS, FRANCE
1142 6326 BRUGGEMAN JOOP 08:27:42:000 F 77 257.60 DIEPENHEIM, Pays-Bas
1143 8080 PEETERS PATRICK 08:27:43:000 D 460 11.50 BAAKLE-MASAC, Pays-Bas
1144 2174 CRABBE JACKY 08:27:47:000 D 461 11.50 ELINGEN, BELGIQUE
1145 3378 DE SMET PATRICK 08:27:48:000 E 357 11.50 LOKEREN, BELGIQUE
1146 1358 RASMUSSEN RUNE 08:27:49:000 E 358 11.50 KARLSLUNDE, DANEMARK
1147 3377 RASSCHAERT DIRK 08:27:49:800 D 462 11.50 LOCHRISTI, BELGIQUE
1148 3807 DE PARISOT THIERRY 08:27:49:900 F 78 256.45 BEAUMONT, FRANCE
1149 956 GEERINCK WALTER 08:27:51:000 E 359 11.50 DEURNE (ANTWERPEN), BELGIQUE
1150 6687 DE WAARD ARJE 08:27:56:000 C 217 96.60 Dordrecht, Pays-Bas
1151 810 PIOVOSI SERGIO 08:27:58:400 D 463 11.50 PERGINE VALDARNO, ITALIE
1152 6385 VRIESWIJK SIEBE 08:27:58:400 C 218 95.45 DEVENTER, Pays-Bas
1153 3161 FRANKEN GEORGE 08:27:59:000 E 360 11.50 BERGEN OP ZOOM, Pays-Bas
1154 3595 GIBOURDEL PATRICK 08:27:59:200 E 361 11.50 LES BAUX SAINTE CROIX, FRANCE
1155 8873 PULS ROBIN 08:28:00:200 C 219 94.30 AMSTERDAM, Pays-Bas
1156 1425 JONGELING RUDOEF 08:28:02:000 E 362 11.50 WESTZAAM, Pays-Bas
1157 2020 TEN BRINKE NILS 08:28:02:000 D 464 11.50 APELDOORN, Pays-Bas
1158 2834 DE MAEYER ROBBY 08:28:04:000 C 220 93.15 KRUIBEKE, BELGIQUE
1159 6240 HIHEKMANN JEROEN 08:28:04:000 D 465 11.50 RYSWIJH (ZH), Pays-Bas
1160 6070 ISEBAERT PAUL 08:28:06:000 F 79 255.30 VICHTE, BELGIQUE
1161 747 GERARD DOMINIQUE 08:28:06:900 B 1 345.00 ESSERT, FRANCE
1162 309 FRAISSE ROBERT 08:28:11:000 F 80 254.15 ST VICTOR SUR LOIRE, FRANCE
1163 6296 DOUBLET FRANCOIS 08:28:12:000 E 363 11.50 SAINT ISMIER, FRANCE
1164 1248 TAYLOR CARL 08:28:14:000 D 466 11.50 ROSSENDALE LANCASHIRE, Royaume-Uni
1165 6055 CHEMILLE DAVID 08:28:14:800 D 467 11.50 HENNEBONT, FRANCE
1166 5441 CARIOU YOHAN 08:28:16:000 C 221 92.00 QUIMPER, FRANCE
1167 889 REVELLI FABIANO 08:28:20:000 E 364 11.50 ARMA DI TAGGIA, ITALIE
1168 4073 QUARTIER CHRISTOPHE 08:28:20:900 D 468 11.50 MENEN, BELGIQUE
1169 6964 DEFRUYT HENDRIK 08:28:22:000 D 469 11.50 DE HAAN, BELGIQUE
1170 2087 BARTER DAVID 08:28:27:000 D 470 11.50 SWINDON, Royaume-Uni
1171 3858 PETTINELLI LEONARDO 08:28:27:000 E 365 11.50 SENIGALLIA, ITALIE
1172 2961 VINCENT STEPHANE 08:28:29:000 D 471 11.50 DIJON, FRANCE
1173 4107 LOUIS MICKAEL 08:28:30:000 C 222 90.85 CONDAT EN COMBRAILLE, FRANCE
1174 4248 VAN DORP FILIP 08:28:33:200 D 472 11.50 ZELE, BELGIQUE
1175 1805 SINOT CHRISTIAN 08:28:42:000 E 366 11.50 NANCY, FRANCE
1176 2691 ZURBACH PASCAL 08:28:42:000 E 367 11.50 BALDERSHEIM, FRANCE
1177 3274 VAN GELDEREN ELLO 08:28:56:000 D 473 11.50 Haarlem, Pays-Bas
1178 1349 TOOLENAAR TOON 08:29:06:000 E 368 11.50 MIJNSHEERENLAND, Pays-Bas
1179 1636 VAN WIJK MARC 08:29:14:000 D 474 11.50 SCHIPLUIDEN, Pays-bas
1180 5934 VAN DE GRIENDT HANS 08:29:25:000 F 81 253.00 DRUNEN, Pays-Bas
1181 5014 LAUFENBUCHLER GAETAN 08:29:54:000 E 369 11.50 GAMBSHEIM, FRANCE
1182 50 DICKHOUT JAN 08:29:56:000 F 82 251.85 EINDHOVEN, Pays-Bas
1183 3410 BRUNI GIAN PAOLO 08:30:07:000 D 475 11.50 MIRABELLO, ITALIE
1184 8871 KRUITHOF THOMAS 08:30:11:000 C 223 89.70 AMSTERDAM, Pays-Bas
1185 2647 ARMSTRONG PAUL 08:30:12:000 C 224 88.55 WORKINGTON, Royaume-Uni
1186 2106 DESOUSA ANSELMO 08:30:13:500 F 83 250.70 COURNON, FRANCE
1187 2190 HOLLEBEKE PHILIPPE 08:30:14:000 E 370 11.50 IEPER, BELGIQUE
1188 414 DEKKER MIRO 08:30:14:800 C 225 87.40 DEN DOLDER, Pays-Bas
1189 2875 DRUET YVES 08:30:15:000 D 476 11.50 CHALON SUR SAONE, FRANCE
1190 3480 MONTEBOVE ARMANDO 08:30:15:200 F 84 249.55 VITERBO, ITALIE
1191 2541 VAN LOON DIRK 08:30:16:000 D 477 11.50 ARENDONK, BELGIQUE
1192 1232 BAUR WIL 08:30:19:000 E 371 11.50 LANDGRAAF, Pays-Bas
1193 3970 TRIVULCE ROLAND 08:30:21:000 F 85 248.40 CHEVIGNY ST SAUVEUR, FRANCE
1194 3300 BOMHOFF GUUS 08:30:25:000 F 86 247.25 AMSTERDAM, Pays-Bas
1195 1623 DE SCHRIJVER MARC 08:30:29:900 E 372 11.50 KERKSEN, BELGIQUE
1196 249 DEMANGEON DAMIEN 08:30:30:500 C 226 86.25 BRON, FRANCE
1197 4167 STOLP EDWIN 08:30:34:000 D 478 11.50 AMSTERDAM, Pays-Bas
1198 1654 KLOOTWIJK MARCEL 08:30:36:000 C 227 85.10 KERKDRIEL, Pays-Bas
1199 6460 KUIJKEN GUUS 08:30:38:000 F 87 246.10 WAALRE, Pays-Bas
1200 6560 WIND HENK 08:30:40:000 E 373 11.50 STAPHORST, Pays-Bas
1201 6343 VAN LEEUWEN BART 08:30:41:000 C 228 83.95 LELYSTAD, Pays-Bas
1202 8500 COGHE TOM 08:30:41:000 C 229 82.80 LANGEMARK, BELGIQUE
1203 4692 BLOM JAAP-RONALD 08:30:44:000 C 230 81.65 Zwolle, Pays-Bas
1204 4496 MIDDLETON KEITH 08:30:49:000 E 374 11.50 LINCOLN, Royaume-Uni
1205 2730 MAES RUDI 08:30:54:000 D 479 11.50 BORSBEKE, BELGIQUE
1206 385 TUSOLI NONCE 08:30:57:000 E 375 11.50 ARLES, FRANCE
1207 386 FERRETTI MARC 08:30:57:000 E 376 11.50 ARLES, FRANCE
1208 5218 LITZELMANN FRANCK 08:30:57:000 C 231 80.50 LAUBACH, FRANCE
1209 4527 KOEDAM MARCO 08:30:58:000 E 377 11.50 ZEIST, Pays-Bas
1210 6508 TER HART MARCEL 08:31:01:000 D 480 11.50 SITTARD, Pays-Bas
1211 1699 ELIJZEN MICHIEL 08:31:03:800 C 232 79.35 EDE, Pays-Bas
1212 8630 RAFFIN LAURENT 08:31:06:000 D 481 11.50 BUSSIERES, FRANCE
1213 428 DE ROOIJ RONALD 08:31:10:000 E 378 11.50 ALPHEN A/D RIJN, Pays-Bas
1214 8819 FOURNIER AURELIEN 08:31:18:000 C 233 78.20 MURAT, FRANCE
1215 3636 PENNINGS PIETER 08:31:18:300 D 482 11.50 RIJSBERGEN, Pays-Bas
1216 1480 DENIS RENEE 08:31:19:600 AB 4 341.55 OUDEWATER, Pays-Bas
1217 8486 VIDAL ORTEGA PEDRO 08:31:21:000 E 379 11.50 RIPOLL (GIRONA), ESPAGNE
1218 2141 GUENNEUGUES GILLES 08:31:23:000 E 380 11.50 LANGUIDIC, FRANCE
1219 920 GROSEN OLE 08:31:25:000 D 483 11.50 ESPGERG, DANEMARK
1221 1149 PRINS HARRY 08:31:34:000 E 381 11.50 ASSEN, Pays-Bas
1222 6943 MEULDERS RAYMOND 08:31:34:800 F 88 244.95 TURNHOUT, BELGIQUE
1223 4082 VAN TITTELBOOM KRIS 08:31:35:400 D 484 11.50 MEEBEKE, BELGIQUE
1224 2644 JANSSEN ERIK 08:31:36:000 D 485 11.50 DRUTEN, Pays-Bas
1225 1048 VAN EXEL IVO 08:31:38:000 E 382 11.50 RUMMEN, BELGIQUE
1226 1115 GALLE MAURICE 08:31:40:000 C 234 77.05 DRUNEN, Pays-Bas
1227 1354 BIGET ERIC 08:31:43:000 D 486 11.50 POMMEUSE, FRANCE
1228 8927 BENEDICTO IZQUIERDO ANTONIO 08:31:48:000 E 383 11.50 ST ESTEVE SESROUIRES (BARCELONA), ESPAGNE
1229 2966 RAISON JEAN CLAUDE 08:31:58:000 E 384 11.50 BERGEM, 23
1230 1302 SWAAN DENNIS 08:31:59:100 C 235 75.90 LELYSTAD, Pays-Bas
1231 3753 CENTENO MARIN JOSE MARIA 08:32:00:000 D 487 11.50 GRANADA, ESPAGNE
1232 1006 GRIGNARD BAUDOUIN 08:32:01:000 E 385 11.50 VERVIERS, BELGIQUE
1233 4240 LOGGHE DIRK 08:32:01:500 E 386 11.50 KORTENBERG, BELGIQUE
1234 3832 ANTON LAURENT 08:32:02:000 E 387 11.50 DIJON, FRANCE
1235 2193 PEREZ J.MARIE 08:32:03:000 F 89 243.80 BRIGNAIS, FRANCE
1236 3834 BEZ SERGE 08:32:05:000 D 488 11.50 SALON DE PROVENCE, FRANCE
1237 5399 HEIM THIERRY 08:32:06:000 D 489 11.50 LIEBSDORF, FRANCE
1238 5446 CORNAGO LUCA 08:32:06:200 C 236 74.75 ALME (BG), ITALIE
1239 3538 DUQUE PARRA LUIS 08:32:14:000 D 490 11.50 PONTAURY, BELGIQUE
1240 3797 BARTHELEMY DANIEL 08:32:14:200 D 491 11.50 BEAUMONT, FRANCE
1241 2213 ANNAART PETER 08:32:16:000 D 492 11.50 MOERBEKE, BELGIQUE
1242 3409 ZOBOLI STEFANO 08:32:16:000 E 388 11.50 BOLOGNA, ITALIE
1243 2211 DE BAETS JEAN MARIE 08:32:16:700 F 90 242.65 WACHTEBEKE, BELGIQUE
1244 8489 SADURNI ROQUE XAVIER 08:32:17:000 D 493 11.50 RIPOLL (GIRONA), ESPAGNE
1245 3942 MALANDAIN CHRISTOPHE 08:32:17:100 D 494 11.50 DOMONT, FRANCE
1246 1060 HANSEN BJARNE 08:32:20:000 D 495 11.50 COPENHAGEN, DANEMARK
1247 2382 STRUIJS PETER 08:32:24:200 D 496 11.50 RUCPHEN, Pays-Bas
1248 1957 DE BOER COR 08:32:31:000 D 497 11.50 HOMMERTS, Pays-Bas
1249 4534 PASCAL GILLES 08:32:31:800 F 91 241.50 SEYSSINS, France
1250 2158 MEIRE CHRISTOPHE 08:32:35:200 D 498 11.50 ASPER, BELGIQUE
1251 8971 MARCASTROPPA DORIANO 08:32:39:800 F 92 240.35 PERSICO DOSIMO CR, ITALIE
1252 3696 LOSA RICO JOSE MARIA 08:32:40:200 D 499 11.50 ELDA (ALICANTE), ESPAGNE
1253 6382 D OPERE ERIK 08:32:43:100 D 500 11.50 WOLVERTEM, BELGIQUE
1254 1107 TENSEN DICK 08:32:45:000 E 389 11.50 LEIDEN, Pays-Bas
1255 3778 GOMEZ GARCIA FRANCISCO JAVIER 08:32:52:000 C 237 73.60 CANALS VALENCIA, ESPAGNE
1256 6175 MARTIN DAVID 08:32:56:000 C 238 72.45 MARSEILLE, FRANCE
1257 1834 VAN VLERKEN PETER 08:33:02:000 D 501 11.50 HERENTOUT, BELGIQUE
1258 4606 VAN GILS FRANK 08:33:06:000 D 502 11.50 WUUSTWEZEL, BELGIQUE
1259 2284 MULDER ERIK 08:33:07:000 D 503 11.50 AMSTERDAM, Pays-Bas
1260 6208 KEIJZERS PETER 08:33:08:000 F 93 239.20 HILLEGAM, Pays-Bas
1261 758 FILLON JOEL 08:33:08:700 D 504 11.50 VOIRON, FRANCE
1262 4490 BOURILLON ERIC 08:33:10:000 D 505 11.50 MARSEILLE, FRANCE
1263 1866 REYNAUD STEPHANE 08:33:12:000 D 506 11.50 SURESNES, France
1264 5838 TAILLAND PHILIPPE 08:33:18:000 E 390 11.50 MONTELIMAR, FRANCE
1265 322 GALLO MONIQUE 08:33:18:100 AB 5 340.40 KINGERSHEIM, FRANCE
1266 440 VIJVERBERG ARJAN 08:33:26:000 D 507 11.50 SPIJKENISSE, Pays-Bas
1267 8004 PIERRA DANIEL 08:33:26:000 D 508 11.50 DONZENAC, FRANCE
1268 1326 NIELSEN FRANK 08:33:33:000 D 509 11.50 VEJLE, DANEMARK
1269 2796 FEARNLEY DAVID 08:33:55:000 D 510 11.50 LONDON, Royaume-Uni
1270 2934 GUICHARD CHRISTIAN 08:33:55:800 E 391 11.50 SAINT GERMAIN, FRANCE
1271 6476 MULLER CHRISTOPHE 08:33:56:000 C 239 71.30 RUELISHEIM, FRANCE
1272 5923 CHRISTIN JEAN FRANCOIS 08:34:00:000 D 511 11.50 VINZIER, FRANCE
1273 4090 VERSTOCKEN TOM 08:34:02:000 C 240 70.15 SINT NIKLAAS, BELGIQUE
1274 5848 MONTCHOVET CLAUDE 08:34:06:000 E 392 11.50 LE CHAMBON FEUGEROLLES, FRANCE
1275 1854 COPPENS STEVE 08:34:06:900 C 241 69.00 LE CHABLE, Suisse
1276 443 HELBERS JOOP 08:34:08:000 C 242 67.85 HELLEVOETSLUIS, Pays-Bas
1277 5927 RIZZON NICOLAS 08:34:10:000 D 512 11.50 ANNECY, FRANCE
1278 3611 RAMOS LOSA CRESENCIO 08:34:16:000 E 393 11.50 CASTELLON DE LA PLANA, ESPAGNE
1279 5302 MARIJSSE GEERT 08:34:19:000 E 394 11.50 KORTRIJK, BELGIQUE
1280 1573 DE WIT NORBERT 08:34:22:100 C 243 66.70 LEIDSCHENDAM, Pays-Bas
1281 6369 LOOTSMA NATHAN 08:34:26:000 D 513 11.50 LEEUWARDEN, Pays-Bas
1282 3580 MONJOT HENRI 08:34:28:000 G 7 338.10 EPINAY SUR ORGE, FRANCE
1283 3336 HOEST LARS 08:34:29:000 D 514 11.50 SAEBY, DANEMARK
1284 5789 STRAATHOF JEROEN 08:34:31:000 D 515 11.50 LEIDEN, Pays-Bas
1285 3883 DUMONT GERVAIS 08:34:31:900 F 94 238.05 THUREY, FRANCE
1286 703 VAEYENS PATRICK 08:34:34:300 D 516 11.50 AFFLIGEM, BELGIQUE
1287 8960 CASTELLET TOMAS 08:34:35:000 C 244 65.55 ESCALDES, 25
1288 3441 PERLOTTI SERGIO 08:34:39:400 E 395 11.50 EDOLO LC, ITALIE
1289 6995 TE BRAAK JOOST 08:34:40:000 C 245 64.40 ENSCHEDE, Pays-Bas
1290 1419 SCHOLTEN ARJAN 08:34:40:900 E 396 11.50 DE RIJP, Pays-Bas
1291 2103 BRUSTEL JEAN MARC 08:34:41:000 E 397 11.50 LE CENDRE, FRANCE
1292 1835 PROCUREUR PHILLIPE 08:34:42:000 E 398 11.50 NEUF VILLES, BELGIQUE
1293 4197 DUC DAMIEN 08:34:43:200 D 517 11.50 CHANTRAINE, FRANCE
1294 409 MOS RUUD 08:34:45:000 E 399 11.50 WIJK BIJ DUURSTEDE, Pays-Bas
1295 5783 BODEGOM ROBBERT 08:34:45:900 C 246 63.25 BERGAMBACHT, Pays-Bas
1296 5223 LEJEUNE JEAN LUC 08:34:47:800 E 400 11.50 GELBRESSEE, Belgique
1297 4285 KES CARLO 08:34:58:000 D 518 11.50 AMSTERDAM, Pays-Bas
1298 2177 STENVERS NUHI 08:35:00:000 D 519 11.50 UTRECHT, Pays-Bas
1299 247 MAIGRET PHILIPPE 08:35:03:500 D 520 11.50 DECINES, France
1300 6229 LISSENBERG GEORGE 08:35:04:100 E 401 11.50 HEENVLIET, Pays-Bas
1301 1382 DESWIJZEN CHRISTIAN 08:35:06:300 C 247 62.10 KERKRADE, Pays-Bas
1302 8916 TARANCON CEFORO AGUSTIN 08:35:11:000 D 521 11.50 BARCELONA, ESPAGNE
1303 1217 CHIADO RANA LUCA 08:35:13:000 D 522 11.50 CASTAGNETO (PO), ITALIE
1304 5865 ROBICHON JEAN PIERRE 08:35:22:600 E 402 11.50 COURTOIS SUR YONNE, FRANCE
1305 3217 CLAUWAERT STEFAAN 08:35:33:100 E 403 11.50 WERVIK, BELGIQUE
1307 3631 SANCHEZ GERARD 08:35:37:000 D 523 11.50 RESTINCLIERES, FRANCE
1308 4098 CAZZANIGA EGIDIO 08:35:42:400 D 524 11.50 CASSAGO LECCO, ITALIE
1309 92 PAGAT CHRISTOPHE 08:35:43:000 E 404 11.50 VALBONNE, FRANCE
1310 2618 GOUROUNAS JEAN LUC 08:35:44:600 E 405 11.50 ST ETIENNE, FRANCE
1311 1128 VAN DER LOUW MARCO 08:35:45:000 D 525 11.50 AMSTERDAM, Pays-bas
1312 8038 OLIEMAN ROLAND 08:35:46:000 D 526 11.50 VOORBURG, Pays-Bas
1314 865 VAN WEVERENBERGH JORIS 08:35:49:000 D 527 11.50 KORBEEK-LO, BELGIQUE
1315 2686 VAN DER KEMP ROBERT 08:35:49:000 E 406 11.50 SINT GILLIS WAAS, BELGIQUE
1316 601 DEN OUDEN PATRICK 08:35:52:000 D 528 11.50 GELEEN, Pays-Bas
1317 3468 BERNARDINI LORIS 08:35:54:000 E 407 11.50 DAIRAGO, ITALIE
1318 13 VANSPRINGEL JOSEPH 08:35:55:000 E 408 11.50 Vosselaar, Belgique
1319 2722 MATTHYS ARNOLD 08:35:58:000 E 409 11.50 OUDENBURG, BELGIQUE
1320 2340 VAN ZWIENEN MARIUS 08:36:03:000 E 410 11.50 LEKKERKERK, Pays-Bas
1321 1317 WODSTRUP FRANK 08:36:03:400 D 529 11.50 AALBORG, DANEMARK
1322 4613 VAN DER NEUT THEO 08:36:08:000 E 411 11.50 AMSTERDAM, Pays-Bas
1323 4969 NAIN SEBASTIEN 08:36:08:700 D 530 11.50 FUVEAU, FRANCE
1324 2013 HAUTEKEETE ARNE 08:36:11:000 D 531 11.50 Drongen, Belgique
1325 3175 WEMMI KLAAS 08:36:11:000 C 248 60.95 EDE, Pays-Bas
1326 2435 VAN UDEN KEES 08:36:12:800 D 532 11.50 VINKEL, Pays-Bas
1327 142 JENOT EMILE 08:36:17:000 G 8 336.95 LE CANET, FRANCE
1328 4435 VAN DE VYVER JONAS 08:36:22:000 C 249 59.80 KRUIBEKE, BELGIQUE
1329 5451 BONAITI ANGELO 08:36:23:800 E 412 11.50 BARZANA (BG), ITALIE
1330 3528 RAGA CARRERES DAVID 08:36:26:000 D 533 11.50 MASSANASSA (VALENCIA), Espagne
1331 3105 VOORTHUYSEN WILLEM 08:36:27:000 C 250 58.65 AMSTERDAM, Pays-Bas
1332 8609 LUIKENS GUIDO 08:36:27:000 E 413 11.50 OOSTERHOUT, Pays-Bas
1333 1507 HERMANS PETER 08:36:27:400 E 414 11.50 RAVENSTEIN, Pays-Bas
1334 3709 BARBIERI PALMIRO 08:36:33:000 F 97 234.60 CASTELLARANO (RE), ITALIE
1335 6998 PRAKKEN MARCEL 08:36:40:000 C 251 57.50 UTRECHT, Pays-Bas
1336 1670 VAN MIL RUUD 08:36:44:000 D 534 11.50 OVERLOON, Pays-Bas
1337 6241 HILCKMANN BAS 08:36:44:800 D 535 11.50 DEN HAAG, Pays-Bas
1338 5720 MORRISON GEORGE 08:36:45:000 E 415 11.50 TORONTO, 13
1339 8964 KIRBY DAVID 08:36:45:600 D 536 11.50 LONDON, Royaume-Uni
1340 1540 VAN DONGEN STEFAN 08:36:47:000 E 416 11.50 DOETINCHEM, Pays-Bas
1341 2229 VERSCHOORE NICOLAS 08:36:48:300 C 252 56.35 MIDDELKERKE, BELGIQUE
1342 2526 DUIKER ROLAND 08:36:56:000 D 537 11.50 ZWOLLE, Pays-Bas
1343 8746 SALVADOR GIMENO 08:37:00:000 C 253 55.20 VALENCIA MONCADA, ESPAGNE
1344 5048 PORTE MATHIEU 08:37:06:000 D 538 11.50 DIJON, FRANCE
1345 1052 SENDEN WIEL 08:37:08:400 F 98 233.45 ROTTERDAM, Pays-bas
1346 3579 MICHEL GUY 08:37:09:000 E 417 11.50 BALLAINVILLIERS, FRANCE
1347 8 GOEGAN PIERRE 08:37:09:200 F 99 232.30 RIANS, France
1348 1335 MCDOWALL JOHN 08:37:12:000 C 254 54.05 EDINBURG, Royaume-Uni
1349 3413 MANTOVANI GINO 08:37:16:000 E 418 11.50 CAVEZZO MO, ITALIE
1350 8984 VERMEIR GERD 08:37:16:000 C 255 52.90 ZELE, BELGIQUE
1351 4887 GARAVELLI PATRICE 08:37:16:600 F 100 231.15 ST EGREVE, FRANCE
1352 4371 HOCHART FREDERIC 08:37:29:000 E 419 11.50 SŠVRES, FRANCE
1353 8490 SALVà DANIEL 08:37:34:000 C 256 51.75 ULTRAMORT, ESPAGNE
1354 5737 DIDISHEIM LEIF 08:37:36:100 D 539 11.50 ESBJERG OE, DANEMARK
1355 3918 DE GROOT WOUTER 08:37:38:600 E 420 11.50 MONNICKENDAM, Pays-Bas
1356 2160 VIAENE YVES 08:37:42:000 D 540 11.50 ZANDBERGEN, BELGIQUE
1357 8882 DUSSERE SEBASTIEN 08:37:42:700 D 541 11.50 ST JEAN DU GARD, FRANCE
1358 5398 CUENIN FABRICE 08:37:43:100 D 542 11.50 NEUCHATEL, SUISSE
1359 4005 CLAEYS STEVEN 08:37:44:200 D 543 11.50 NEVELE, BELGIQUE
1360 3674 FRANCOIS J.JACQUES 08:37:49:000 F 101 230.00 CHAMBRY, FRANCE
1361 3150 DE PRUYSSENAERE IMO 08:37:52:000 C 257 50.60 UTRECHT, Pays-Bas
1362 1602 VAN DEN HOOGEN MARCO 08:37:52:100 E 421 11.50 VLEUTEN, Pays-Bas
1363 1846 RANSON JEAN HERVE 08:37:52:300 E 422 11.50 GRANDE SYNTHE, FRANCE
1364 1907 DAL SANTO CATERINA 08:37:52:700 B 2 343.85 BOLZANO, ITALIE
1365 212 AANRAAD WILFRIED 08:37:53:000 E 423 11.50 KRUISLAND, Pays-Bas
1366 2672 ALBRECHT FRANK 08:37:53:200 E 424 11.50 HOMBERG, ALLEMAGNE
1367 8926 SABATE ROSELL MARC 08:37:53:200 C 258 49.45 MARTORELL, ESPAGNE
1368 3258 KEES GUIDO 08:37:55:000 E 425 11.50 GENK-BELGIQUE, BELGIQUE
1369 2183 WOOD STEVE 08:38:04:000 F 102 228.85 HARROGATE, Royaume-Uni
1370 4676 CANON HUBERT 08:38:05:000 D 544 11.50 GESPUNSART, FRANCE
1372 4062 DEMUYNCK DANNY 08:38:11:000 E 426 11.50 DIKKEBUS, BELGIQUE
1373 3645 VALENTIN J.MARC 08:38:12:400 E 427 11.50 VENISSIEUX, FRANCE
1374 6566 ISLA GOMEZ FERNANDO 08:38:12:700 D 545 11.50 ZARAGOZA, ESPAGNE
1375 6568 VELILLA RODRIGO CESAR 08:38:12:700 D 546 11.50 BARBASTRO, ESPAGNE
1376 1964 EGGERMONT NATHAN 08:38:16:700 D 547 11.50 BRUGGE, BELGIQUE
1377 3969 TRIVULCE CLAUDE 08:38:20:000 E 428 11.50 DIJON, FRANCE
1378 679 VAN RIJCKEGHEM WIM 08:38:20:800 D 548 11.50 ANZEGEM (KASTER), BELGIQUE
1379 1056 DE LANGE KEES 08:38:24:500 E 429 11.50 NIEUW VENNEP, Pays-Bas
1380 4700 KUIPERS ERIK 08:38:25:200 E 430 11.50 MADE, Pays-Bas
1381 4977 BORDET ROLAND 08:38:26:900 D 549 11.50 LARAJASSE, FRANCE
1382 6526 SEYNAEVE GINO 08:38:28:000 D 550 11.50 BREDENE, BELGIQUE
1383 2191 MACHADO JEAN MARC 08:38:30:000 D 551 11.50 NOHANENT, FRANCE
1384 2452 EEFTINK BENNY 08:38:32:600 D 552 11.50 VELDHOVEN, Pays-bas
1385 3000 VINCENT WOUTER 08:38:34:000 C 259 48.30 MARKELO, Pays-Bas
1386 5230 BLERY FREDERIC 08:38:34:300 D 553 11.50 SIX FOURS LES PLAGES, FRANCE
1387 4753 BRIZZI FRANCESCO 08:38:37:600 D 554 11.50 BORGOPACE PU, ITALIE
1388 8943 GIUSEPPE BLASCO 08:38:46:000 E 431 11.50 bevera di ventimiglia, Italie
1389 2417 VAN DE VEN PEER 08:38:48:000 F 103 227.70 BERLICUM, Pays-Bas
1390 4867 MIKKELSEN MIKAEL 08:38:48:400 E 432 11.50 VIBORG, DANEMARK
1391 1592 DUPONT BENNY 08:38:54:000 E 433 11.50 ZOTTEGEM, BELGIQUE
1392 3436 MARZARI IVO 08:38:57:300 F 104 226.55 CEREA VR, ITALIE
1393 5229 RIDINGS CHRIS 08:39:08:000 E 434 11.50 BURNLEY, Royaume-Uni
1394 1637 VAN ROON SANDER 08:39:10:000 D 555 11.50 SCHIPLUIDEN, Pays-Bas
1395 5074 DE WINTER CHIEM 08:39:11:500 D 556 11.50 ELST, Pays-Bas
1396 8487 TORRENTO JAUME 08:39:13:800 C 260 47.15 RIPOLL, ESPAGNE
1397 336 VAN DYCK JOSEPH 08:39:17:000 F 105 225.40 BRECHT, BELGIQUE
1398 5876 GANDER SERGE 08:39:29:000 E 435 11.50 BULLET, SUISSE
1399 2643 MARTIN IGOR 08:39:31:000 D 557 11.50 EINDHOVEN, Pays-Bas
1400 6478 OSINGA WIERD 08:39:31:600 C 261 46.00 GRONINGEN, Pays-Bas
1401 846 SERTORI STEFANO 08:39:46:000 E 436 11.50 POGGIO BERNI, ITALIE
1402 6683 VERSLYPE HENDRIM 08:39:47:600 D 558 11.50 NIEUWPOURT, BELGIQUE
1403 5404 VALLET GUILLAUME 08:39:48:000 D 559 11.50 MOIRANS EN MONTAGNE, France
1404 1022 MADOU EDWIN 08:39:50:000 D 560 11.50 PULDERBOS, BELGIQUE
1405 6209 SWERON LUDO 08:39:50:700 E 437 11.50 WOLVERTEM, Belgique
1406 2861 RAEYMAEKERS ROB 08:39:55:500 E 438 11.50 KASTERLEE, BELGIQUE
1407 5117 DEWULF PETER 08:39:55:500 E 439 11.50 BREDENE, BELGIQUE
1408 4272 PAUWELS MATHIEU 08:40:04:000 D 561 11.50 AMIENS, FRANCE
1409 1852 WAMPACH ETIENNE 08:40:22:000 E 440 11.50 BRUXELLES, BELGIQUE
1410 2947 VAN DE POL GERRIT 08:40:22:000 D 562 11.50 EERBEEK, Pays-Bas
1411 3705 MASSARO ANTONIO 08:40:24:700 D 563 11.50 CASTELLARANO (RE), ITALIE
1412 3714 EILRICH SIMON 08:40:25:200 E 441 11.50 EGAA, DANEMARK
1413 1644 VAN WIJK HARRY 08:40:27:000 D 564 11.50 DE LIER, Pays-Bas
1414 2424 HOOF JOOP 08:40:28:000 E 442 11.50 VINKEL, Pays-Bas
1415 1280 OLIVIER DANNY 08:40:28:900 F 106 224.25 GERAARDSBERGEN, BELGIQUE
1416 3766 ZILLINGER MOLENAAR MAX 08:40:32:000 D 565 11.50 BREDA, Pays-Bas
1417 4975 CHARMOILLE GILLES 08:40:38:000 E 443 11.50 BAUME LES DAMES, FRANCE
1418 5558 ARRIZABALAGA PEDRO 08:40:45:000 E 444 11.50 HERNANI (GIPUZUOK), ESPAGNE
1419 5782 BODEGOM MARTJAN 08:40:47:900 C 262 44.85 BERGAMBACHT, Pays-Bas
1420 2797 HENDRIKS PAUL 08:40:48:800 E 445 11.50 GELDERMALSEN, Pays-Bas
1421 2710 MISIEK MARCIN 08:40:49:000 C 263 43.70 OSTROW WIELKOPOLSKI, POLOGNE
1422 4314 CREUZENET SERGE 08:40:49:900 D 566 11.50 SERMESSE, FRANCE
1423 1574 DE LUYCK DIRK 08:40:50:400 E 446 11.50 LIEDEKERKE, BELGIQUE
1424 5956 LEMARTINEL MICKAEL 08:40:52:000 C 264 42.55 CLAIREFONTAINE, FRANCE
1425 2785 LE CLERQ PATRICK 08:40:53:000 E 447 11.50 LIER, BELGIQUE
1426 1968 DOKTER ERWIN 08:40:59:000 E 448 11.50 SCHOETZ, SUISSE
1427 1156 VAN HAASTERT WILFRIED 08:41:00:200 D 567 11.50 ALMERE, Pays-Bas
1428 6109 MAILLON GERARD 08:41:04:000 F 107 223.10 ROCHE LA MOLIERE, France
1429 3249 HELMINK WIM 08:41:06:900 E 449 11.50 WINTERSWIJK, Pays-Bas
1430 4794 VAN VERSENDAAL THOMAS 08:41:08:000 C 265 41.40 TILBURG, Pays-Bas
1431 1140 PEPERS CHRIS 08:41:09:000 D 568 11.50 ENSCHELDE, Pays-Bas
1432 1062 PILOT PETER 08:41:10:000 D 569 11.50 RIJSWIJK, Pays-Bas
1433 3933 OLIESLAEGER CHRIS 08:41:14:000 D 570 11.50 HOEILAART, BELGIQUE
1434 1906 TEITON JEAN CLAUDE 08:41:14:800 E 450 11.50 Guéret, France
1435 2832 VAN DEURSEN MARCEL 08:41:22:000 E 451 11.50 HOOGVLIET, Pays-Bas
1436 973 BEERS VAN AAT 08:41:23:200 E 452 11.50 SPIJKENISSE, Pays-Bas
1437 3609 ESCRIG MANUEL FRANCISCO 08:41:27:000 F 108 221.95 CASTELLON DE LA PLANA, ESPAGNE
1438 6908 HARDY GERD 08:41:28:000 D 571 11.50 Berchem, Belgique
1439 4899 YOUNG MIKE 08:41:30:400 D 572 11.50 COPENHAGEN V, DANEMARK
1440 3909 VAN DER STRAATEN NORBERT 08:41:31:000 D 573 11.50 LEIDEN, Pays-Bas
1441 1227 DE PEUTER ERIC 08:41:32:400 D 574 11.50 SCHILDE, BELGIQUE
1442 2025 GOETHALS KOEN 08:41:33:000 D 575 11.50 WAARSCHOOT, BELGIQUE
1443 3931 DEROM DOMINIQUE 08:41:33:600 E 453 11.50 HOEILAART, BELGIQUE
1444 6066 LEBIGRE OLIVIER 08:41:43:000 E 454 11.50 LA GRANDE PAROISSE, FRANCE
1445 8793 LOOS GUNTHER 08:41:43:000 D 576 11.50 ESSEN, BELGIQUE
1446 8063 BOOM NICO 08:41:50:600 C 266 40.25 LEUVEN, BELGIQUE
1447 6253 VAN NISPEN ERIK 08:41:52:200 D 577 11.50 DOETINCHEM, Pays-Bas
1448 1576 DOM STEFAN 08:41:53:000 D 578 11.50 WOMMELGEM, BELGIQUE
1449 2808 DEMIDDEL KEN 08:42:05:000 D 579 11.50 BEVEREN (LEIE), BELGIQUE
1450 4800 VAN DEN EEDEN JEF 08:42:05:000 F 109 220.80 OELEGEM RANST, BELGIQUE
1451 1204 LIBBRECHT JOHAN 08:42:06:000 E 455 11.50 LEDE, BELGIQUE
1452 1053 ZAGERS RIK 08:42:08:000 D 580 11.50 AMSTERDAM, Pays-Bas
1453 2965 HUYGEN GERT 08:42:08:000 E 456 11.50 STABROEK, Belgique
1454 2982 FELIX CHRISTOPHE 08:42:12:000 E 457 11.50 , FRANCE
1455 493 SMITS MART 08:42:15:400 F 110 219.65 VEGHEL, Pays-Bas
1456 9026 MARTIN GIL XABIER 08:42:17:000